<?xml version="1.0" encoding="UTF-8" standalone="yes"?>
<gpx
 xmlns="http://www.topografix.com/GPX/1/1"
 creator="OziExplorer Version 3955s - http://www.oziexplorer.com"
 version="1.1"
 xmlns:xsi="http://www.w3.org/2001/XMLSchema-instance"
 xsi:schemaLocation="http://www.topografix.com/GPX/1/1 http://www.topografix.com/GPX/1/1/gpx.xsd">
<metadata>
 <time>2013-09-25T03:37:13Z</time>
 <bounds minlat="-39.031798" minlon="175.807118" maxlat="-38.985508" maxlon="175.822686"/>
</metadata>
<wpt lat="-38.9868490" lon="175.8177460">
 <ele>378.000000</ele>
 <time>2013-09-24T20:56:43.000Z</time>
 <name>01</name>
 <cmt>Coffee stop car park Turangi</cmt>
 <desc>Coffee stop car park Turangi</desc>
 <sym>Flag, Blue</sym>
</wpt>
<wpt lat="-38.9857390" lon="175.8199410">
 <ele>385.000031</ele>
 <time>2013-09-24T21:00:40.000Z</time>
 <name>02</name>
 <cmt>265metres (3:40sec); Start of trail then uphill on sealed gravel bike track</cmt>
 <desc>265metres (3:40sec); Start of trail then uphill on sealed gravel bike track</desc>
 <sym>Flag, Blue</sym>
</wpt>
<wpt lat="-38.9980350" lon="175.8136880">
 <ele>387.999969</ele>
 <time>2013-09-24T21:37:09.000Z</time>
 <name>03</name>
 <cmt>2.5km (41min);Seat plus gravel dump near old cableway river crossing</cmt>
 <desc>2.5km (41min);Seat plus gravel dump near old cableway river crossing</desc>
 <sym>Flag, Blue</sym>
</wpt>
<wpt lat="-38.9989130" lon="175.8135620">
 <ele>389.000000</ele>
 <time>2013-09-24T21:39:58.000Z</time>
 <name>04</name>
 <cmt>2.6km (48min); Eastern end of Major Jones bridge</cmt>
 <desc>2.6km (48min); Eastern end of Major Jones bridge</desc>
 <sym>Flag, Blue</sym>
</wpt>
<wpt lat="-39.0142090" lon="175.8181780">
 <ele>406.000000</ele>
 <time>2013-09-24T22:07:08.000Z</time>
 <name>05</name>
 <cmt>4.4km (1:11min); Impresssive stand of fir trees - Douglas Fir?</cmt>
 <desc>4.4km (1:11min); Impresssive stand of fir trees - Douglas Fir?</desc>
 <sym>Flag, Blue</sym>
</wpt>
<wpt lat="-39.0162150" lon="175.8131890">
 <ele>401.000000</ele>
 <time>2013-09-24T22:14:23.000Z</time>
 <name>06</name>
 <cmt>4.9km (1:17min); Y-fork with older track off left</cmt>
 <desc>4.9km (1:17min); Y-fork with older track off left</desc>
 <sym>Flag, Blue</sym>
</wpt>
<wpt lat="-39.0163670" lon="175.8122540">
 <ele>406.000000</ele>
 <time>2013-09-24T22:15:36.000Z</time>
 <name>07</name>
 <cmt>5km (1:18min); Old track rejoins from the left</cmt>
 <desc>5km (1:18min); Old track rejoins from the left</desc>
 <sym>Flag, Blue</sym>
</wpt>
<wpt lat="-39.0271510" lon="175.8162680">
 <ele>430.000000</ele>
 <time>2013-09-24T22:34:49.000Z</time>
 <name>08</name>
 <cmt>6.5km (1:37min); Good view point on bluffs above bend in the river</cmt>
 <desc>6.5km (1:37min); Good view point on bluffs above bend in the river</desc>
 <sym>Flag, Blue</sym>
</wpt>
<wpt lat="-39.0279680" lon="175.8171070">
 <ele>429.000000</ele>
 <time>2013-09-24T22:52:13.000Z</time>
 <name>09</name>
 <cmt>6.6km (1:56min); Y-fork with bikes off left whilst walkers go straight then down steep steps</cmt>
 <desc>6.6km (1:56min); Y-fork with bikes off left whilst walkers go straight then down steep steps</desc>
 <sym>Flag, Blue</sym>
</wpt>
<wpt lat="-39.0315330" lon="175.8139240">
 <ele>421.000000</ele>
 <time>2013-09-24T23:03:56.000Z</time>
 <name>10</name>
 <cmt>7.2km (2:07min); Red Hut Pool bridge then up steps to carpark at edge of SH1</cmt>
 <desc>7.2km (2:07min); Red Hut Pool bridge then up steps to carpark at edge of SH1</desc>
 <sym>Flag, Blue</sym>
</wpt>
<wpt lat="-39.0195040" lon="175.8091390">
 <ele>412.999969</ele>
 <time>2013-09-24T23:32:39.000Z</time>
 <name>11</name>
 <cmt>8.8km (2:35min); Walking parallel to SH1 in to Trout Centre, follow signs at edge of carpark</cmt>
 <desc>8.8km (2:35min); Walking parallel to SH1 in to Trout Centre, follow signs at edge of carpark</desc>
 <sym>Flag, Blue</sym>
</wpt>
<wpt lat="-39.0087140" lon="175.8095340">
 <ele>411.000000</ele>
 <time>2013-09-24T23:53:14.000Z</time>
 <name>12</name>
 <cmt>10.2km (2:56min); On older track, sharp bend to right signed Loop Track &amp; Kutai St carpark, downhill</cmt>
 <desc>10.2km (2:56min); On older track, sharp bend to right signed Loop Track &amp; Kutai St carpark, downhill</desc>
 <sym>Flag, Blue</sym>
</wpt>
<wpt lat="-39.0067850" lon="175.8111140">
 <ele>393.000000</ele>
 <time>2013-09-25T00:01:10.000Z</time>
 <name>13</name>
 <cmt>10.7km (3:04min); T-junction at bottom of descent left to another T and left again</cmt>
 <desc>10.7km (3:04min); T-junction at bottom of descent left to another T and left again</desc>
 <sym>Flag, Blue</sym>
</wpt>
<wpt lat="-39.0023570" lon="175.8125980">
 <ele>391.000000</ele>
 <time>2013-09-25T00:08:14.000Z</time>
 <name>14</name>
 <cmt>11.3km (3:12min); Loop walk rejoins track from the left (The Loop is shorter)</cmt>
 <desc>11.3km (3:12min); Loop walk rejoins track from the left (The Loop is shorter)</desc>
 <sym>Flag, Blue</sym>
</wpt>
<wpt lat="-38.9989870" lon="175.8127230">
 <ele>390.000000</ele>
 <time>2013-09-25T00:13:30.000Z</time>
 <name>15</name>
 <cmt>11.7 (3:16min); Western end of Major Jones bridge on wide, beaten earth track</cmt>
 <desc>11.7 (3:16min); Western end of Major Jones bridge on wide, beaten earth track</desc>
 <sym>Flag, Blue</sym>
</wpt>
<trk>
 <name>Tongariro River Trail</name>
 <desc>2013-09-25 12:35:14</desc>
<trkseg>
<trkpt lat="-38.9868450" lon="175.8177500">
<ele>377.891052</ele>
<time>2013-09-24T20:56:38.999Z</time>
</trkpt>
<trkpt lat="-38.9868040" lon="175.8178420">
<ele>378.409210</ele>
<time>2013-09-24T20:56:52.996Z</time>
</trkpt>
<trkpt lat="-38.9867540" lon="175.8179360">
<ele>378.896881</ele>
<time>2013-09-24T20:57:00.996Z</time>
</trkpt>
<trkpt lat="-38.9867040" lon="175.8180350">
<ele>378.896881</ele>
<time>2013-09-24T20:57:08.997Z</time>
</trkpt>
<trkpt lat="-38.9866510" lon="175.8181480">
<ele>378.409210</ele>
<time>2013-09-24T20:57:19.002Z</time>
</trkpt>
<trkpt lat="-38.9866190" lon="175.8182640">
<ele>378.896881</ele>
<time>2013-09-24T20:57:27.996Z</time>
</trkpt>
<trkpt lat="-38.9865500" lon="175.8183430">
<ele>379.872253</ele>
<time>2013-09-24T20:57:35.004Z</time>
</trkpt>
<trkpt lat="-38.9864780" lon="175.8184190">
<ele>380.329468</ele>
<time>2013-09-24T20:57:42.002Z</time>
</trkpt>
<trkpt lat="-38.9864050" lon="175.8185080">
<ele>381.304810</ele>
<time>2013-09-24T20:57:49.000Z</time>
</trkpt>
<trkpt lat="-38.9863410" lon="175.8186090">
<ele>381.304810</ele>
<time>2013-09-24T20:57:57.001Z</time>
</trkpt>
<trkpt lat="-38.9862730" lon="175.8186890">
<ele>381.792480</ele>
<time>2013-09-24T20:58:03.999Z</time>
</trkpt>
<trkpt lat="-38.9861960" lon="175.8187720">
<ele>381.792480</ele>
<time>2013-09-24T20:58:12.000Z</time>
</trkpt>
<trkpt lat="-38.9861210" lon="175.8188430">
<ele>382.249664</ele>
<time>2013-09-24T20:58:29.997Z</time>
</trkpt>
<trkpt lat="-38.9860480" lon="175.8189190">
<ele>382.737335</ele>
<time>2013-09-24T20:58:37.004Z</time>
</trkpt>
<trkpt lat="-38.9859750" lon="175.8189960">
<ele>381.792480</ele>
<time>2013-09-24T20:58:44.003Z</time>
</trkpt>
<trkpt lat="-38.9858970" lon="175.8190790">
<ele>381.792480</ele>
<time>2013-09-24T20:58:51.001Z</time>
</trkpt>
<trkpt lat="-38.9858260" lon="175.8191460">
<ele>382.737335</ele>
<time>2013-09-24T20:59:04.998Z</time>
</trkpt>
<trkpt lat="-38.9857490" lon="175.8192180">
<ele>382.249664</ele>
<time>2013-09-24T20:59:11.996Z</time>
</trkpt>
<trkpt lat="-38.9857010" lon="175.8193180">
<ele>381.792480</ele>
<time>2013-09-24T20:59:19.003Z</time>
</trkpt>
<trkpt lat="-38.9856540" lon="175.8194160">
<ele>381.304810</ele>
<time>2013-09-24T20:59:26.002Z</time>
</trkpt>
<trkpt lat="-38.9855790" lon="175.8194890">
<ele>382.249664</ele>
<time>2013-09-24T20:59:33.000Z</time>
</trkpt>
<trkpt lat="-38.9855080" lon="175.8195620">
<ele>382.249664</ele>
<time>2013-09-24T20:59:39.998Z</time>
</trkpt>
<trkpt lat="-38.9855230" lon="175.8196840">
<ele>382.249664</ele>
<time>2013-09-24T20:59:47.999Z</time>
</trkpt>
<trkpt lat="-38.9855980" lon="175.8197910">
<ele>382.737335</ele>
<time>2013-09-24T20:59:56.000Z</time>
</trkpt>
<trkpt lat="-38.9856630" lon="175.8198920">
<ele>384.169922</ele>
<time>2013-09-24T21:00:04.000Z</time>
</trkpt>
<trkpt lat="-38.9857510" lon="175.8199480">
<ele>385.145264</ele>
<time>2013-09-24T21:00:21.004Z</time>
</trkpt>
<trkpt lat="-38.9858740" lon="175.8198920">
<ele>388.040863</ele>
<time>2013-09-24T21:00:55.996Z</time>
</trkpt>
<trkpt lat="-38.9859430" lon="175.8198140">
<ele>388.985748</ele>
<time>2013-09-24T21:01:15.997Z</time>
</trkpt>
<trkpt lat="-38.9859660" lon="175.8199080">
<ele>390.418335</ele>
<time>2013-09-24T21:01:44.000Z</time>
</trkpt>
<trkpt lat="-38.9858920" lon="175.8199970">
<ele>391.393677</ele>
<time>2013-09-24T21:01:52.000Z</time>
</trkpt>
<trkpt lat="-38.9859260" lon="175.8200370">
<ele>391.881348</ele>
<time>2013-09-24T21:02:00.001Z</time>
</trkpt>
<trkpt lat="-38.9860250" lon="175.8199940">
<ele>392.826263</ele>
<time>2013-09-24T21:02:08.002Z</time>
</trkpt>
<trkpt lat="-38.9861220" lon="175.8199790">
<ele>394.289276</ele>
<time>2013-09-24T21:02:16.002Z</time>
</trkpt>
<trkpt lat="-38.9862130" lon="175.8199690">
<ele>394.289276</ele>
<time>2013-09-24T21:02:24.003Z</time>
</trkpt>
<trkpt lat="-38.9861770" lon="175.8200180">
<ele>395.234131</ele>
<time>2013-09-24T21:02:38.000Z</time>
</trkpt>
<trkpt lat="-38.9860840" lon="175.8200690">
<ele>396.209534</ele>
<time>2013-09-24T21:02:46.000Z</time>
</trkpt>
<trkpt lat="-38.9860150" lon="175.8201580">
<ele>397.154388</ele>
<time>2013-09-24T21:02:54.001Z</time>
</trkpt>
<trkpt lat="-38.9861010" lon="175.8201340">
<ele>398.586945</ele>
<time>2013-09-24T21:03:03.004Z</time>
</trkpt>
<trkpt lat="-38.9861900" lon="175.8200850">
<ele>399.562317</ele>
<time>2013-09-24T21:03:11.998Z</time>
</trkpt>
<trkpt lat="-38.9862870" lon="175.8200800">
<ele>401.970245</ele>
<time>2013-09-24T21:03:29.002Z</time>
</trkpt>
<trkpt lat="-38.9863030" lon="175.8201240">
<ele>404.378143</ele>
<time>2013-09-24T21:03:41.003Z</time>
</trkpt>
<trkpt lat="-38.9862280" lon="175.8202120">
<ele>404.835358</ele>
<time>2013-09-24T21:03:49.997Z</time>
</trkpt>
<trkpt lat="-38.9862130" lon="175.8202920">
<ele>405.810730</ele>
<time>2013-09-24T21:03:59.000Z</time>
</trkpt>
<trkpt lat="-38.9862990" lon="175.8202320">
<ele>406.755615</ele>
<time>2013-09-24T21:04:08.003Z</time>
</trkpt>
<trkpt lat="-38.9863960" lon="175.8202030">
<ele>409.194000</ele>
<time>2013-09-24T21:04:17.999Z</time>
</trkpt>
<trkpt lat="-38.9864550" lon="175.8202150">
<ele>409.651215</ele>
<time>2013-09-24T21:04:46.001Z</time>
</trkpt>
<trkpt lat="-38.9864260" lon="175.8202230">
<ele>410.138885</ele>
<time>2013-09-24T21:06:12.997Z</time>
</trkpt>
<trkpt lat="-38.9863730" lon="175.8203040">
<ele>411.114258</ele>
<time>2013-09-24T21:06:51.998Z</time>
</trkpt>
<trkpt lat="-38.9862970" lon="175.8203900">
<ele>412.546814</ele>
<time>2013-09-24T21:07:02.004Z</time>
</trkpt>
<trkpt lat="-38.9863320" lon="175.8204110">
<ele>413.491669</ele>
<time>2013-09-24T21:07:12.000Z</time>
</trkpt>
<trkpt lat="-38.9864220" lon="175.8203770">
<ele>414.954742</ele>
<time>2013-09-24T21:07:21.003Z</time>
</trkpt>
<trkpt lat="-38.9865160" lon="175.8203840">
<ele>415.442413</ele>
<time>2013-09-24T21:07:30.999Z</time>
</trkpt>
<trkpt lat="-38.9865500" lon="175.8204880">
<ele>416.387268</ele>
<time>2013-09-24T21:07:40.996Z</time>
</trkpt>
<trkpt lat="-38.9865900" lon="175.8205970">
<ele>417.362640</ele>
<time>2013-09-24T21:07:51.001Z</time>
</trkpt>
<trkpt lat="-38.9866530" lon="175.8206790">
<ele>417.362640</ele>
<time>2013-09-24T21:08:00.004Z</time>
</trkpt>
<trkpt lat="-38.9867240" lon="175.8207640">
<ele>416.387268</ele>
<time>2013-09-24T21:08:11.996Z</time>
</trkpt>
<trkpt lat="-38.9867810" lon="175.8208550">
<ele>415.442413</ele>
<time>2013-09-24T21:08:19.997Z</time>
</trkpt>
<trkpt lat="-38.9868380" lon="175.8209620">
<ele>416.387268</ele>
<time>2013-09-24T21:08:29.000Z</time>
</trkpt>
<trkpt lat="-38.9868660" lon="175.8210710">
<ele>414.954742</ele>
<time>2013-09-24T21:08:37.000Z</time>
</trkpt>
<trkpt lat="-38.9869220" lon="175.8211700">
<ele>414.467041</ele>
<time>2013-09-24T21:08:45.001Z</time>
</trkpt>
<trkpt lat="-38.9870110" lon="175.8212180">
<ele>414.954742</ele>
<time>2013-09-24T21:08:53.002Z</time>
</trkpt>
<trkpt lat="-38.9870680" lon="175.8213060">
<ele>414.954742</ele>
<time>2013-09-24T21:09:01.996Z</time>
</trkpt>
<trkpt lat="-38.9871130" lon="175.8214110">
<ele>414.954742</ele>
<time>2013-09-24T21:09:09.996Z</time>
</trkpt>
<trkpt lat="-38.9871650" lon="175.8215070">
<ele>414.954742</ele>
<time>2013-09-24T21:09:18.999Z</time>
</trkpt>
<trkpt lat="-38.9871460" lon="175.8216220">
<ele>416.387268</ele>
<time>2013-09-24T21:09:27.000Z</time>
</trkpt>
<trkpt lat="-38.9871820" lon="175.8217140">
<ele>416.387268</ele>
<time>2013-09-24T21:09:35.001Z</time>
</trkpt>
<trkpt lat="-38.9872580" lon="175.8217970">
<ele>417.819855</ele>
<time>2013-09-24T21:09:44.004Z</time>
</trkpt>
<trkpt lat="-38.9873300" lon="175.8218670">
<ele>418.307526</ele>
<time>2013-09-24T21:09:52.004Z</time>
</trkpt>
<trkpt lat="-38.9873880" lon="175.8219620">
<ele>418.795197</ele>
<time>2013-09-24T21:09:59.996Z</time>
</trkpt>
<trkpt lat="-38.9874780" lon="175.8220240">
<ele>418.795197</ele>
<time>2013-09-24T21:10:08.999Z</time>
</trkpt>
<trkpt lat="-38.9875710" lon="175.8220480">
<ele>419.740082</ele>
<time>2013-09-24T21:10:18.002Z</time>
</trkpt>
<trkpt lat="-38.9876640" lon="175.8220760">
<ele>420.227753</ele>
<time>2013-09-24T21:10:26.996Z</time>
</trkpt>
<trkpt lat="-38.9877510" lon="175.8221260">
<ele>421.203125</ele>
<time>2013-09-24T21:10:37.001Z</time>
</trkpt>
<trkpt lat="-38.9878430" lon="175.8221630">
<ele>421.690796</ele>
<time>2013-09-24T21:10:46.004Z</time>
</trkpt>
<trkpt lat="-38.9879380" lon="175.8221730">
<ele>420.227753</ele>
<time>2013-09-24T21:10:57.003Z</time>
</trkpt>
<trkpt lat="-38.9880320" lon="175.8221850">
<ele>420.715454</ele>
<time>2013-09-24T21:11:05.004Z</time>
</trkpt>
<trkpt lat="-38.9881330" lon="175.8221950">
<ele>419.282867</ele>
<time>2013-09-24T21:11:13.998Z</time>
</trkpt>
<trkpt lat="-38.9882230" lon="175.8221890">
<ele>418.795197</ele>
<time>2013-09-24T21:11:25.999Z</time>
</trkpt>
<trkpt lat="-38.9883120" lon="175.8221890">
<ele>417.362640</ele>
<time>2013-09-24T21:11:40.004Z</time>
</trkpt>
<trkpt lat="-38.9884060" lon="175.8222130">
<ele>417.362640</ele>
<time>2013-09-24T21:11:48.998Z</time>
</trkpt>
<trkpt lat="-38.9884990" lon="175.8222570">
<ele>416.387268</ele>
<time>2013-09-24T21:11:56.999Z</time>
</trkpt>
<trkpt lat="-38.9885730" lon="175.8223060">
<ele>415.899597</ele>
<time>2013-09-24T21:12:05.000Z</time>
</trkpt>
<trkpt lat="-38.9886290" lon="175.8224020">
<ele>415.899597</ele>
<time>2013-09-24T21:12:14.003Z</time>
</trkpt>
<trkpt lat="-38.9887000" lon="175.8224810">
<ele>415.442413</ele>
<time>2013-09-24T21:12:22.003Z</time>
</trkpt>
<trkpt lat="-38.9886880" lon="175.8226010">
<ele>413.979340</ele>
<time>2013-09-24T21:12:30.004Z</time>
</trkpt>
<trkpt lat="-38.9887000" lon="175.8226860">
<ele>413.491669</ele>
<time>2013-09-24T21:12:48.001Z</time>
</trkpt>
<trkpt lat="-38.9887360" lon="175.8225800">
<ele>412.059113</ele>
<time>2013-09-24T21:13:01.004Z</time>
</trkpt>
<trkpt lat="-38.9887950" lon="175.8225040">
<ele>411.571442</ele>
<time>2013-09-24T21:13:09.998Z</time>
</trkpt>
<trkpt lat="-38.9888020" lon="175.8223830">
<ele>410.138885</ele>
<time>2013-09-24T21:13:17.999Z</time>
</trkpt>
<trkpt lat="-38.9888250" lon="175.8222660">
<ele>410.138885</ele>
<time>2013-09-24T21:13:26.000Z</time>
</trkpt>
<trkpt lat="-38.9888030" lon="175.8221590">
<ele>409.194000</ele>
<time>2013-09-24T21:13:34.000Z</time>
</trkpt>
<trkpt lat="-38.9887450" lon="175.8220620">
<ele>408.218658</ele>
<time>2013-09-24T21:13:43.003Z</time>
</trkpt>
<trkpt lat="-38.9887850" lon="175.8219680">
<ele>406.298401</ele>
<time>2013-09-24T21:13:51.004Z</time>
</trkpt>
<trkpt lat="-38.9888190" lon="175.8218550">
<ele>404.835358</ele>
<time>2013-09-24T21:13:59.998Z</time>
</trkpt>
<trkpt lat="-38.9887900" lon="175.8217410">
<ele>403.402802</ele>
<time>2013-09-24T21:14:09.001Z</time>
</trkpt>
<trkpt lat="-38.9888450" lon="175.8216350">
<ele>402.915131</ele>
<time>2013-09-24T21:14:18.004Z</time>
</trkpt>
<trkpt lat="-38.9889430" lon="175.8216340">
<ele>402.915131</ele>
<time>2013-09-24T21:14:26.998Z</time>
</trkpt>
<trkpt lat="-38.9889790" lon="175.8217510">
<ele>402.915131</ele>
<time>2013-09-24T21:14:36.001Z</time>
</trkpt>
<trkpt lat="-38.9889880" lon="175.8218690">
<ele>402.457916</ele>
<time>2013-09-24T21:14:44.002Z</time>
</trkpt>
<trkpt lat="-38.9889970" lon="175.8219880">
<ele>401.970245</ele>
<time>2013-09-24T21:14:52.002Z</time>
</trkpt>
<trkpt lat="-38.9890090" lon="175.8221150">
<ele>401.482544</ele>
<time>2013-09-24T21:15:00.003Z</time>
</trkpt>
<trkpt lat="-38.9890060" lon="175.8222350">
<ele>400.994873</ele>
<time>2013-09-24T21:15:08.004Z</time>
</trkpt>
<trkpt lat="-38.9890760" lon="175.8221740">
<ele>400.049988</ele>
<time>2013-09-24T21:15:16.998Z</time>
</trkpt>
<trkpt lat="-38.9891590" lon="175.8221270">
<ele>398.586945</ele>
<time>2013-09-24T21:15:24.998Z</time>
</trkpt>
<trkpt lat="-38.9891890" lon="175.8220260">
<ele>398.129730</ele>
<time>2013-09-24T21:15:32.999Z</time>
</trkpt>
<trkpt lat="-38.9892120" lon="175.8219140">
<ele>397.154388</ele>
<time>2013-09-24T21:15:41.000Z</time>
</trkpt>
<trkpt lat="-38.9892230" lon="175.8217930">
<ele>396.666718</ele>
<time>2013-09-24T21:15:50.003Z</time>
</trkpt>
<trkpt lat="-38.9892330" lon="175.8216790">
<ele>396.209534</ele>
<time>2013-09-24T21:15:58.003Z</time>
</trkpt>
<trkpt lat="-38.9892750" lon="175.8215690">
<ele>394.746460</ele>
<time>2013-09-24T21:16:06.004Z</time>
</trkpt>
<trkpt lat="-38.9893020" lon="175.8214540">
<ele>393.801605</ele>
<time>2013-09-24T21:16:13.996Z</time>
</trkpt>
<trkpt lat="-38.9893730" lon="175.8215100">
<ele>391.881348</ele>
<time>2013-09-24T21:16:22.999Z</time>
</trkpt>
<trkpt lat="-38.9894660" lon="175.8215510">
<ele>391.393677</ele>
<time>2013-09-24T21:16:30.999Z</time>
</trkpt>
<trkpt lat="-38.9895600" lon="175.8215190">
<ele>390.906006</ele>
<time>2013-09-24T21:16:39.000Z</time>
</trkpt>
<trkpt lat="-38.9896500" lon="175.8214930">
<ele>390.906006</ele>
<time>2013-09-24T21:16:47.001Z</time>
</trkpt>
<trkpt lat="-38.9897450" lon="175.8215390">
<ele>389.961121</ele>
<time>2013-09-24T21:16:56.004Z</time>
</trkpt>
<trkpt lat="-38.9898290" lon="175.8215760">
<ele>388.498077</ele>
<time>2013-09-24T21:17:29.000Z</time>
</trkpt>
<trkpt lat="-38.9898840" lon="175.8215990">
<ele>388.498077</ele>
<time>2013-09-24T21:18:09.996Z</time>
</trkpt>
<trkpt lat="-38.9899740" lon="175.8216680">
<ele>388.498077</ele>
<time>2013-09-24T21:18:25.998Z</time>
</trkpt>
<trkpt lat="-38.9900600" lon="175.8217160">
<ele>387.553192</ele>
<time>2013-09-24T21:18:36.996Z</time>
</trkpt>
<trkpt lat="-38.9901500" lon="175.8217400">
<ele>387.553192</ele>
<time>2013-09-24T21:19:08.999Z</time>
</trkpt>
<trkpt lat="-38.9902460" lon="175.8217590">
<ele>386.577850</ele>
<time>2013-09-24T21:19:19.004Z</time>
</trkpt>
<trkpt lat="-38.9903330" lon="175.8217240">
<ele>384.657593</ele>
<time>2013-09-24T21:19:29.001Z</time>
</trkpt>
<trkpt lat="-38.9904020" lon="175.8216460">
<ele>384.169922</ele>
<time>2013-09-24T21:19:42.997Z</time>
</trkpt>
<trkpt lat="-38.9904930" lon="175.8216040">
<ele>383.225067</ele>
<time>2013-09-24T21:19:50.998Z</time>
</trkpt>
<trkpt lat="-38.9905660" lon="175.8215230">
<ele>382.737335</ele>
<time>2013-09-24T21:20:01.997Z</time>
</trkpt>
<trkpt lat="-38.9906270" lon="175.8214250">
<ele>383.225067</ele>
<time>2013-09-24T21:20:09.997Z</time>
</trkpt>
<trkpt lat="-38.9906720" lon="175.8213250">
<ele>381.792480</ele>
<time>2013-09-24T21:20:17.998Z</time>
</trkpt>
<trkpt lat="-38.9907140" lon="175.8212240">
<ele>379.872253</ele>
<time>2013-09-24T21:20:25.999Z</time>
</trkpt>
<trkpt lat="-38.9907720" lon="175.8211170">
<ele>379.872253</ele>
<time>2013-09-24T21:20:33.999Z</time>
</trkpt>
<trkpt lat="-38.9908410" lon="175.8210230">
<ele>379.872253</ele>
<time>2013-09-24T21:20:42.000Z</time>
</trkpt>
<trkpt lat="-38.9908810" lon="175.8208990">
<ele>381.792480</ele>
<time>2013-09-24T21:20:51.003Z</time>
</trkpt>
<trkpt lat="-38.9909100" lon="175.8207750">
<ele>383.225067</ele>
<time>2013-09-24T21:21:00.999Z</time>
</trkpt>
<trkpt lat="-38.9910050" lon="175.8207290">
<ele>383.712738</ele>
<time>2013-09-24T21:21:10.996Z</time>
</trkpt>
<trkpt lat="-38.9910990" lon="175.8206860">
<ele>383.712738</ele>
<time>2013-09-24T21:21:21.001Z</time>
</trkpt>
<trkpt lat="-38.9911860" lon="175.8206390">
<ele>384.169922</ele>
<time>2013-09-24T21:21:29.002Z</time>
</trkpt>
<trkpt lat="-38.9912740" lon="175.8205960">
<ele>384.169922</ele>
<time>2013-09-24T21:21:37.002Z</time>
</trkpt>
<trkpt lat="-38.9913670" lon="175.8205920">
<ele>384.169922</ele>
<time>2013-09-24T21:21:45.003Z</time>
</trkpt>
<trkpt lat="-38.9914490" lon="175.8205140">
<ele>384.657593</ele>
<time>2013-09-24T21:21:53.997Z</time>
</trkpt>
<trkpt lat="-38.9915370" lon="175.8204760">
<ele>384.657593</ele>
<time>2013-09-24T21:22:01.998Z</time>
</trkpt>
<trkpt lat="-38.9916300" lon="175.8204540">
<ele>385.145264</ele>
<time>2013-09-24T21:22:09.998Z</time>
</trkpt>
<trkpt lat="-38.9917220" lon="175.8204300">
<ele>384.657593</ele>
<time>2013-09-24T21:22:19.001Z</time>
</trkpt>
<trkpt lat="-38.9918150" lon="175.8204120">
<ele>384.657593</ele>
<time>2013-09-24T21:22:27.002Z</time>
</trkpt>
<trkpt lat="-38.9918980" lon="175.8204570">
<ele>385.145264</ele>
<time>2013-09-24T21:22:35.003Z</time>
</trkpt>
<trkpt lat="-38.9919660" lon="175.8205390">
<ele>385.145264</ele>
<time>2013-09-24T21:22:43.003Z</time>
</trkpt>
<trkpt lat="-38.9920620" lon="175.8205210">
<ele>384.657593</ele>
<time>2013-09-24T21:22:51.004Z</time>
</trkpt>
<trkpt lat="-38.9921560" lon="175.8204770">
<ele>385.145264</ele>
<time>2013-09-24T21:22:59.998Z</time>
</trkpt>
<trkpt lat="-38.9922390" lon="175.8204170">
<ele>385.145264</ele>
<time>2013-09-24T21:23:07.999Z</time>
</trkpt>
<trkpt lat="-38.9922910" lon="175.8203580">
<ele>385.632935</ele>
<time>2013-09-24T21:23:38.999Z</time>
</trkpt>
<trkpt lat="-38.9923550" lon="175.8202610">
<ele>385.632935</ele>
<time>2013-09-24T21:23:49.998Z</time>
</trkpt>
<trkpt lat="-38.9924220" lon="175.8201780">
<ele>385.632935</ele>
<time>2013-09-24T21:23:57.998Z</time>
</trkpt>
<trkpt lat="-38.9925060" lon="175.8201160">
<ele>385.632935</ele>
<time>2013-09-24T21:24:05.999Z</time>
</trkpt>
<trkpt lat="-38.9925600" lon="175.8200200">
<ele>385.632935</ele>
<time>2013-09-24T21:24:14.000Z</time>
</trkpt>
<trkpt lat="-38.9926400" lon="175.8199620">
<ele>385.632935</ele>
<time>2013-09-24T21:24:23.003Z</time>
</trkpt>
<trkpt lat="-38.9927100" lon="175.8198720">
<ele>385.632935</ele>
<time>2013-09-24T21:24:43.004Z</time>
</trkpt>
<trkpt lat="-38.9927420" lon="175.8197570">
<ele>385.145264</ele>
<time>2013-09-24T21:24:50.996Z</time>
</trkpt>
<trkpt lat="-38.9927410" lon="175.8196270">
<ele>384.169922</ele>
<time>2013-09-24T21:24:58.997Z</time>
</trkpt>
<trkpt lat="-38.9927840" lon="175.8195300">
<ele>384.657593</ele>
<time>2013-09-24T21:25:06.997Z</time>
</trkpt>
<trkpt lat="-38.9928620" lon="175.8194450">
<ele>385.632935</ele>
<time>2013-09-24T21:25:16.000Z</time>
</trkpt>
<trkpt lat="-38.9929460" lon="175.8193780">
<ele>386.120667</ele>
<time>2013-09-24T21:25:24.001Z</time>
</trkpt>
<trkpt lat="-38.9930330" lon="175.8193340">
<ele>385.145264</ele>
<time>2013-09-24T21:25:32.002Z</time>
</trkpt>
<trkpt lat="-38.9931280" lon="175.8193080">
<ele>384.169922</ele>
<time>2013-09-24T21:25:40.002Z</time>
</trkpt>
<trkpt lat="-38.9932180" lon="175.8193160">
<ele>383.225067</ele>
<time>2013-09-24T21:25:48.003Z</time>
</trkpt>
<trkpt lat="-38.9932770" lon="175.8192160">
<ele>382.737335</ele>
<time>2013-09-24T21:25:56.004Z</time>
</trkpt>
<trkpt lat="-38.9933580" lon="175.8191640">
<ele>382.737335</ele>
<time>2013-09-24T21:26:04.004Z</time>
</trkpt>
<trkpt lat="-38.9934270" lon="175.8190770">
<ele>384.169922</ele>
<time>2013-09-24T21:26:11.996Z</time>
</trkpt>
<trkpt lat="-38.9934780" lon="175.8189770">
<ele>384.657593</ele>
<time>2013-09-24T21:26:19.997Z</time>
</trkpt>
<trkpt lat="-38.9935530" lon="175.8189050">
<ele>386.120667</ele>
<time>2013-09-24T21:26:29.000Z</time>
</trkpt>
<trkpt lat="-38.9936250" lon="175.8188010">
<ele>386.120667</ele>
<time>2013-09-24T21:26:37.000Z</time>
</trkpt>
<trkpt lat="-38.9936640" lon="175.8186760">
<ele>385.632935</ele>
<time>2013-09-24T21:26:45.001Z</time>
</trkpt>
<trkpt lat="-38.9937280" lon="175.8185910">
<ele>386.120667</ele>
<time>2013-09-24T21:26:53.002Z</time>
</trkpt>
<trkpt lat="-38.9938160" lon="175.8185160">
<ele>385.632935</ele>
<time>2013-09-24T21:27:01.002Z</time>
</trkpt>
<trkpt lat="-38.9939030" lon="175.8184570">
<ele>385.632935</ele>
<time>2013-09-24T21:27:09.003Z</time>
</trkpt>
<trkpt lat="-38.9939750" lon="175.8183700">
<ele>384.657593</ele>
<time>2013-09-24T21:27:17.004Z</time>
</trkpt>
<trkpt lat="-38.9940450" lon="175.8182760">
<ele>383.225067</ele>
<time>2013-09-24T21:27:25.004Z</time>
</trkpt>
<trkpt lat="-38.9940910" lon="175.8181590">
<ele>382.249664</ele>
<time>2013-09-24T21:27:32.996Z</time>
</trkpt>
<trkpt lat="-38.9941260" lon="175.8180390">
<ele>380.817139</ele>
<time>2013-09-24T21:27:40.997Z</time>
</trkpt>
<trkpt lat="-38.9941540" lon="175.8179300">
<ele>380.329468</ele>
<time>2013-09-24T21:27:48.004Z</time>
</trkpt>
<trkpt lat="-38.9941900" lon="175.8178130">
<ele>380.817139</ele>
<time>2013-09-24T21:27:55.996Z</time>
</trkpt>
<trkpt lat="-38.9941990" lon="175.8176840">
<ele>380.329468</ele>
<time>2013-09-24T21:28:03.996Z</time>
</trkpt>
<trkpt lat="-38.9942060" lon="175.8175630">
<ele>380.817139</ele>
<time>2013-09-24T21:28:11.997Z</time>
</trkpt>
<trkpt lat="-38.9942200" lon="175.8174390">
<ele>380.817139</ele>
<time>2013-09-24T21:28:19.998Z</time>
</trkpt>
<trkpt lat="-38.9942110" lon="175.8173210">
<ele>381.304810</ele>
<time>2013-09-24T21:28:27.998Z</time>
</trkpt>
<trkpt lat="-38.9941960" lon="175.8171990">
<ele>381.304810</ele>
<time>2013-09-24T21:28:35.999Z</time>
</trkpt>
<trkpt lat="-38.9941990" lon="175.8170650">
<ele>380.817139</ele>
<time>2013-09-24T21:28:44.000Z</time>
</trkpt>
<trkpt lat="-38.9942130" lon="175.8169330">
<ele>381.304810</ele>
<time>2013-09-24T21:28:52.000Z</time>
</trkpt>
<trkpt lat="-38.9942290" lon="175.8168130">
<ele>381.792480</ele>
<time>2013-09-24T21:29:00.001Z</time>
</trkpt>
<trkpt lat="-38.9942530" lon="175.8166860">
<ele>381.792480</ele>
<time>2013-09-24T21:29:08.002Z</time>
</trkpt>
<trkpt lat="-38.9942780" lon="175.8165770">
<ele>381.304810</ele>
<time>2013-09-24T21:29:16.002Z</time>
</trkpt>
<trkpt lat="-38.9943270" lon="175.8164780">
<ele>380.817139</ele>
<time>2013-09-24T21:29:24.003Z</time>
</trkpt>
<trkpt lat="-38.9943770" lon="175.8163640">
<ele>380.817139</ele>
<time>2013-09-24T21:29:32.004Z</time>
</trkpt>
<trkpt lat="-38.9944290" lon="175.8162490">
<ele>380.817139</ele>
<time>2013-09-24T21:29:40.004Z</time>
</trkpt>
<trkpt lat="-38.9944800" lon="175.8161360">
<ele>381.304810</ele>
<time>2013-09-24T21:29:47.996Z</time>
</trkpt>
<trkpt lat="-38.9945220" lon="175.8160190">
<ele>381.304810</ele>
<time>2013-09-24T21:29:55.997Z</time>
</trkpt>
<trkpt lat="-38.9945730" lon="175.8159050">
<ele>381.304810</ele>
<time>2013-09-24T21:30:03.997Z</time>
</trkpt>
<trkpt lat="-38.9946160" lon="175.8157890">
<ele>381.304810</ele>
<time>2013-09-24T21:30:11.998Z</time>
</trkpt>
<trkpt lat="-38.9946590" lon="175.8156770">
<ele>381.304810</ele>
<time>2013-09-24T21:30:19.999Z</time>
</trkpt>
<trkpt lat="-38.9947090" lon="175.8155690">
<ele>380.817139</ele>
<time>2013-09-24T21:30:27.999Z</time>
</trkpt>
<trkpt lat="-38.9947750" lon="175.8154790">
<ele>382.249664</ele>
<time>2013-09-24T21:30:36.000Z</time>
</trkpt>
<trkpt lat="-38.9948250" lon="175.8153670">
<ele>382.737335</ele>
<time>2013-09-24T21:30:44.001Z</time>
</trkpt>
<trkpt lat="-38.9948890" lon="175.8152790">
<ele>382.737335</ele>
<time>2013-09-24T21:30:52.001Z</time>
</trkpt>
<trkpt lat="-38.9949580" lon="175.8151910">
<ele>382.737335</ele>
<time>2013-09-24T21:31:00.002Z</time>
</trkpt>
<trkpt lat="-38.9950190" lon="175.8150940">
<ele>382.737335</ele>
<time>2013-09-24T21:31:08.003Z</time>
</trkpt>
<trkpt lat="-38.9950750" lon="175.8149880">
<ele>382.737335</ele>
<time>2013-09-24T21:31:16.003Z</time>
</trkpt>
<trkpt lat="-38.9951310" lon="175.8148770">
<ele>383.225067</ele>
<time>2013-09-24T21:31:24.004Z</time>
</trkpt>
<trkpt lat="-38.9951740" lon="175.8147560">
<ele>383.225067</ele>
<time>2013-09-24T21:31:34.000Z</time>
</trkpt>
<trkpt lat="-38.9952530" lon="175.8146420">
<ele>383.712738</ele>
<time>2013-09-24T21:31:47.997Z</time>
</trkpt>
<trkpt lat="-38.9953450" lon="175.8145450">
<ele>383.225067</ele>
<time>2013-09-24T21:31:57.000Z</time>
</trkpt>
<trkpt lat="-38.9954100" lon="175.8144480">
<ele>383.225067</ele>
<time>2013-09-24T21:32:03.998Z</time>
</trkpt>
<trkpt lat="-38.9954780" lon="175.8143290">
<ele>383.225067</ele>
<time>2013-09-24T21:32:11.999Z</time>
</trkpt>
<trkpt lat="-38.9955540" lon="175.8142330">
<ele>383.712738</ele>
<time>2013-09-24T21:32:20.000Z</time>
</trkpt>
<trkpt lat="-38.9956240" lon="175.8141330">
<ele>383.225067</ele>
<time>2013-09-24T21:32:28.000Z</time>
</trkpt>
<trkpt lat="-38.9956960" lon="175.8140500">
<ele>383.712738</ele>
<time>2013-09-24T21:32:36.001Z</time>
</trkpt>
<trkpt lat="-38.9957630" lon="175.8139570">
<ele>383.712738</ele>
<time>2013-09-24T21:32:44.002Z</time>
</trkpt>
<trkpt lat="-38.9958430" lon="175.8138670">
<ele>383.712738</ele>
<time>2013-09-24T21:32:52.002Z</time>
</trkpt>
<trkpt lat="-38.9959410" lon="175.8138120">
<ele>384.169922</ele>
<time>2013-09-24T21:33:00.996Z</time>
</trkpt>
<trkpt lat="-38.9960290" lon="175.8137520">
<ele>384.169922</ele>
<time>2013-09-24T21:33:08.997Z</time>
</trkpt>
<trkpt lat="-38.9961090" lon="175.8136760">
<ele>384.169922</ele>
<time>2013-09-24T21:33:16.998Z</time>
</trkpt>
<trkpt lat="-38.9961830" lon="175.8135950">
<ele>383.712738</ele>
<time>2013-09-24T21:33:24.998Z</time>
</trkpt>
<trkpt lat="-38.9962530" lon="175.8135480">
<ele>384.169922</ele>
<time>2013-09-24T21:34:17.003Z</time>
</trkpt>
<trkpt lat="-38.9963430" lon="175.8134990">
<ele>384.169922</ele>
<time>2013-09-24T21:34:25.997Z</time>
</trkpt>
<trkpt lat="-38.9964430" lon="175.8134750">
<ele>384.169922</ele>
<time>2013-09-24T21:34:35.000Z</time>
</trkpt>
<trkpt lat="-38.9965400" lon="175.8134530">
<ele>384.169922</ele>
<time>2013-09-24T21:34:43.000Z</time>
</trkpt>
<trkpt lat="-38.9966540" lon="175.8134270">
<ele>383.712738</ele>
<time>2013-09-24T21:34:52.003Z</time>
</trkpt>
<trkpt lat="-38.9967650" lon="175.8134280">
<ele>383.712738</ele>
<time>2013-09-24T21:35:00.004Z</time>
</trkpt>
<trkpt lat="-38.9968650" lon="175.8134080">
<ele>384.169922</ele>
<time>2013-09-24T21:35:07.996Z</time>
</trkpt>
<trkpt lat="-38.9969670" lon="175.8133950">
<ele>384.657593</ele>
<time>2013-09-24T21:35:15.996Z</time>
</trkpt>
<trkpt lat="-38.9970890" lon="175.8134170">
<ele>384.169922</ele>
<time>2013-09-24T21:35:31.004Z</time>
</trkpt>
<trkpt lat="-38.9971820" lon="175.8134280">
<ele>384.657593</ele>
<time>2013-09-24T21:35:38.996Z</time>
</trkpt>
<trkpt lat="-38.9973090" lon="175.8134870">
<ele>385.145264</ele>
<time>2013-09-24T21:35:47.999Z</time>
</trkpt>
<trkpt lat="-38.9974160" lon="175.8135150">
<ele>385.632935</ele>
<time>2013-09-24T21:35:56.000Z</time>
</trkpt>
<trkpt lat="-38.9975090" lon="175.8135210">
<ele>385.632935</ele>
<time>2013-09-24T21:36:04.000Z</time>
</trkpt>
<trkpt lat="-38.9976160" lon="175.8135330">
<ele>386.120667</ele>
<time>2013-09-24T21:36:13.003Z</time>
</trkpt>
<trkpt lat="-38.9977240" lon="175.8135680">
<ele>386.120667</ele>
<time>2013-09-24T21:36:21.004Z</time>
</trkpt>
<trkpt lat="-38.9978180" lon="175.8135940">
<ele>386.577850</ele>
<time>2013-09-24T21:36:28.996Z</time>
</trkpt>
<trkpt lat="-38.9979220" lon="175.8136360">
<ele>387.065521</ele>
<time>2013-09-24T21:36:37.999Z</time>
</trkpt>
<trkpt lat="-38.9980310" lon="175.8136600">
<ele>388.040863</ele>
<time>2013-09-24T21:37:56.001Z</time>
</trkpt>
<trkpt lat="-38.9981350" lon="175.8136940">
<ele>388.040863</ele>
<time>2013-09-24T21:38:11.000Z</time>
</trkpt>
<trkpt lat="-38.9982380" lon="175.8137070">
<ele>387.553192</ele>
<time>2013-09-24T21:38:20.003Z</time>
</trkpt>
<trkpt lat="-38.9983400" lon="175.8137040">
<ele>388.498077</ele>
<time>2013-09-24T21:38:28.997Z</time>
</trkpt>
<trkpt lat="-38.9984440" lon="175.8137130">
<ele>388.498077</ele>
<time>2013-09-24T21:38:39.002Z</time>
</trkpt>
<trkpt lat="-38.9985670" lon="175.8137220">
<ele>388.985748</ele>
<time>2013-09-24T21:38:47.996Z</time>
</trkpt>
<trkpt lat="-38.9986760" lon="175.8137090">
<ele>390.418335</ele>
<time>2013-09-24T21:38:56.999Z</time>
</trkpt>
<trkpt lat="-38.9987750" lon="175.8136660">
<ele>390.418335</ele>
<time>2013-09-24T21:39:06.002Z</time>
</trkpt>
<trkpt lat="-38.9988650" lon="175.8135970">
<ele>390.418335</ele>
<time>2013-09-24T21:39:19.999Z</time>
</trkpt>
<trkpt lat="-38.9989180" lon="175.8135810">
<ele>389.473450</ele>
<time>2013-09-24T21:44:43.999Z</time>
</trkpt>
<trkpt lat="-38.9990250" lon="175.8136180">
<ele>390.906006</ele>
<time>2013-09-24T21:44:58.004Z</time>
</trkpt>
<trkpt lat="-38.9991460" lon="175.8135930">
<ele>390.418335</ele>
<time>2013-09-24T21:45:08.001Z</time>
</trkpt>
<trkpt lat="-38.9992890" lon="175.8135890">
<ele>389.961121</ele>
<time>2013-09-24T21:45:18.999Z</time>
</trkpt>
<trkpt lat="-38.9994340" lon="175.8136090">
<ele>389.961121</ele>
<time>2013-09-24T21:45:31.000Z</time>
</trkpt>
<trkpt lat="-38.9995690" lon="175.8136370">
<ele>390.418335</ele>
<time>2013-09-24T21:45:41.999Z</time>
</trkpt>
<trkpt lat="-38.9996870" lon="175.8136690">
<ele>390.906006</ele>
<time>2013-09-24T21:45:50.000Z</time>
</trkpt>
<trkpt lat="-38.9998140" lon="175.8136630">
<ele>390.418335</ele>
<time>2013-09-24T21:45:59.003Z</time>
</trkpt>
<trkpt lat="-38.9999130" lon="175.8136780">
<ele>390.418335</ele>
<time>2013-09-24T21:46:07.003Z</time>
</trkpt>
<trkpt lat="-39.0000200" lon="175.8137000">
<ele>390.906006</ele>
<time>2013-09-24T21:46:15.004Z</time>
</trkpt>
<trkpt lat="-39.0001320" lon="175.8137120">
<ele>391.393677</ele>
<time>2013-09-24T21:46:23.998Z</time>
</trkpt>
<trkpt lat="-39.0002340" lon="175.8137560">
<ele>391.393677</ele>
<time>2013-09-24T21:46:31.999Z</time>
</trkpt>
<trkpt lat="-39.0003470" lon="175.8138070">
<ele>392.826263</ele>
<time>2013-09-24T21:46:42.004Z</time>
</trkpt>
<trkpt lat="-39.0004560" lon="175.8137990">
<ele>393.801605</ele>
<time>2013-09-24T21:46:50.998Z</time>
</trkpt>
<trkpt lat="-39.0005800" lon="175.8137770">
<ele>394.289276</ele>
<time>2013-09-24T21:47:01.003Z</time>
</trkpt>
<trkpt lat="-39.0007140" lon="175.8137590">
<ele>393.313934</ele>
<time>2013-09-24T21:47:12.002Z</time>
</trkpt>
<trkpt lat="-39.0008540" lon="175.8137590">
<ele>392.826263</ele>
<time>2013-09-24T21:47:21.998Z</time>
</trkpt>
<trkpt lat="-39.0009720" lon="175.8137750">
<ele>392.369049</ele>
<time>2013-09-24T21:47:32.004Z</time>
</trkpt>
<trkpt lat="-39.0010970" lon="175.8138140">
<ele>391.881348</ele>
<time>2013-09-24T21:47:42.000Z</time>
</trkpt>
<trkpt lat="-39.0012200" lon="175.8137980">
<ele>389.961121</ele>
<time>2013-09-24T21:47:51.996Z</time>
</trkpt>
<trkpt lat="-39.0013600" lon="175.8137750">
<ele>389.473450</ele>
<time>2013-09-24T21:48:06.002Z</time>
</trkpt>
<trkpt lat="-39.0015090" lon="175.8138830">
<ele>388.985748</ele>
<time>2013-09-24T21:48:18.996Z</time>
</trkpt>
<trkpt lat="-39.0016050" lon="175.8140150">
<ele>389.961121</ele>
<time>2013-09-24T21:48:30.997Z</time>
</trkpt>
<trkpt lat="-39.0017080" lon="175.8140970">
<ele>389.473450</ele>
<time>2013-09-24T21:48:42.998Z</time>
</trkpt>
<trkpt lat="-39.0018140" lon="175.8141060">
<ele>389.473450</ele>
<time>2013-09-24T21:48:52.001Z</time>
</trkpt>
<trkpt lat="-39.0019080" lon="175.8140100">
<ele>389.961121</ele>
<time>2013-09-24T21:49:01.998Z</time>
</trkpt>
<trkpt lat="-39.0019940" lon="175.8139540">
<ele>389.473450</ele>
<time>2013-09-24T21:49:09.998Z</time>
</trkpt>
<trkpt lat="-39.0021310" lon="175.8139920">
<ele>389.961121</ele>
<time>2013-09-24T21:49:20.997Z</time>
</trkpt>
<trkpt lat="-39.0022420" lon="175.8140260">
<ele>389.473450</ele>
<time>2013-09-24T21:49:28.998Z</time>
</trkpt>
<trkpt lat="-39.0023470" lon="175.8140620">
<ele>389.473450</ele>
<time>2013-09-24T21:49:36.998Z</time>
</trkpt>
<trkpt lat="-39.0024580" lon="175.8140510">
<ele>389.473450</ele>
<time>2013-09-24T21:49:44.999Z</time>
</trkpt>
<trkpt lat="-39.0025620" lon="175.8140360">
<ele>389.961121</ele>
<time>2013-09-24T21:49:53.000Z</time>
</trkpt>
<trkpt lat="-39.0026580" lon="175.8140280">
<ele>389.961121</ele>
<time>2013-09-24T21:49:59.998Z</time>
</trkpt>
<trkpt lat="-39.0027650" lon="175.8140110">
<ele>389.473450</ele>
<time>2013-09-24T21:50:07.999Z</time>
</trkpt>
<trkpt lat="-39.0028670" lon="175.8140050">
<ele>389.473450</ele>
<time>2013-09-24T21:50:15.999Z</time>
</trkpt>
<trkpt lat="-39.0029550" lon="175.8139570">
<ele>390.906006</ele>
<time>2013-09-24T21:50:24.000Z</time>
</trkpt>
<trkpt lat="-39.0030360" lon="175.8139160">
<ele>391.393677</ele>
<time>2013-09-24T21:50:33.003Z</time>
</trkpt>
<trkpt lat="-39.0031200" lon="175.8139850">
<ele>393.801605</ele>
<time>2013-09-24T21:50:41.997Z</time>
</trkpt>
<trkpt lat="-39.0032180" lon="175.8140090">
<ele>394.289276</ele>
<time>2013-09-24T21:50:49.998Z</time>
</trkpt>
<trkpt lat="-39.0033160" lon="175.8140290">
<ele>394.746460</ele>
<time>2013-09-24T21:50:57.998Z</time>
</trkpt>
<trkpt lat="-39.0034120" lon="175.8140460">
<ele>393.801605</ele>
<time>2013-09-24T21:51:04.997Z</time>
</trkpt>
<trkpt lat="-39.0035020" lon="175.8140480">
<ele>393.801605</ele>
<time>2013-09-24T21:51:12.004Z</time>
</trkpt>
<trkpt lat="-39.0035990" lon="175.8140770">
<ele>394.289276</ele>
<time>2013-09-24T21:51:19.996Z</time>
</trkpt>
<trkpt lat="-39.0036990" lon="175.8141100">
<ele>394.746460</ele>
<time>2013-09-24T21:51:30.001Z</time>
</trkpt>
<trkpt lat="-39.0038020" lon="175.8141420">
<ele>395.234131</ele>
<time>2013-09-24T21:51:39.004Z</time>
</trkpt>
<trkpt lat="-39.0039080" lon="175.8141750">
<ele>395.234131</ele>
<time>2013-09-24T21:51:49.000Z</time>
</trkpt>
<trkpt lat="-39.0040250" lon="175.8142070">
<ele>395.234131</ele>
<time>2013-09-24T21:51:58.003Z</time>
</trkpt>
<trkpt lat="-39.0041410" lon="175.8141960">
<ele>395.721863</ele>
<time>2013-09-24T21:52:06.004Z</time>
</trkpt>
<trkpt lat="-39.0042440" lon="175.8141600">
<ele>395.721863</ele>
<time>2013-09-24T21:52:13.996Z</time>
</trkpt>
<trkpt lat="-39.0043500" lon="175.8141390">
<ele>395.721863</ele>
<time>2013-09-24T21:52:22.999Z</time>
</trkpt>
<trkpt lat="-39.0044580" lon="175.8141430">
<ele>395.721863</ele>
<time>2013-09-24T21:52:30.999Z</time>
</trkpt>
<trkpt lat="-39.0045720" lon="175.8141510">
<ele>394.746460</ele>
<time>2013-09-24T21:52:39.000Z</time>
</trkpt>
<trkpt lat="-39.0046790" lon="175.8141490">
<ele>394.746460</ele>
<time>2013-09-24T21:52:45.998Z</time>
</trkpt>
<trkpt lat="-39.0047900" lon="175.8141400">
<ele>395.234131</ele>
<time>2013-09-24T21:52:53.999Z</time>
</trkpt>
<trkpt lat="-39.0048980" lon="175.8141450">
<ele>395.721863</ele>
<time>2013-09-24T21:53:03.002Z</time>
</trkpt>
<trkpt lat="-39.0050070" lon="175.8141390">
<ele>396.209534</ele>
<time>2013-09-24T21:53:11.003Z</time>
</trkpt>
<trkpt lat="-39.0051120" lon="175.8141280">
<ele>396.209534</ele>
<time>2013-09-24T21:53:19.003Z</time>
</trkpt>
<trkpt lat="-39.0052140" lon="175.8140870">
<ele>396.209534</ele>
<time>2013-09-24T21:53:27.004Z</time>
</trkpt>
<trkpt lat="-39.0053040" lon="175.8140290">
<ele>396.666718</ele>
<time>2013-09-24T21:53:34.996Z</time>
</trkpt>
<trkpt lat="-39.0053910" lon="175.8139750">
<ele>395.721863</ele>
<time>2013-09-24T21:53:42.996Z</time>
</trkpt>
<trkpt lat="-39.0054810" lon="175.8139250">
<ele>395.234131</ele>
<time>2013-09-24T21:53:50.997Z</time>
</trkpt>
<trkpt lat="-39.0055850" lon="175.8139060">
<ele>394.289276</ele>
<time>2013-09-24T21:53:58.998Z</time>
</trkpt>
<trkpt lat="-39.0056900" lon="175.8139150">
<ele>393.801605</ele>
<time>2013-09-24T21:54:06.998Z</time>
</trkpt>
<trkpt lat="-39.0057880" lon="175.8139290">
<ele>393.801605</ele>
<time>2013-09-24T21:54:13.997Z</time>
</trkpt>
<trkpt lat="-39.0058880" lon="175.8139580">
<ele>394.746460</ele>
<time>2013-09-24T21:54:21.997Z</time>
</trkpt>
<trkpt lat="-39.0059800" lon="175.8139720">
<ele>394.746460</ele>
<time>2013-09-24T21:54:28.996Z</time>
</trkpt>
<trkpt lat="-39.0060770" lon="175.8140080">
<ele>394.746460</ele>
<time>2013-09-24T21:54:36.996Z</time>
</trkpt>
<trkpt lat="-39.0061780" lon="175.8140330">
<ele>395.234131</ele>
<time>2013-09-24T21:54:44.997Z</time>
</trkpt>
<trkpt lat="-39.0062760" lon="175.8140600">
<ele>394.746460</ele>
<time>2013-09-24T21:54:52.998Z</time>
</trkpt>
<trkpt lat="-39.0063660" lon="175.8141310">
<ele>394.746460</ele>
<time>2013-09-24T21:55:02.001Z</time>
</trkpt>
<trkpt lat="-39.0064730" lon="175.8141930">
<ele>395.234131</ele>
<time>2013-09-24T21:55:11.004Z</time>
</trkpt>
<trkpt lat="-39.0065720" lon="175.8142350">
<ele>395.234131</ele>
<time>2013-09-24T21:55:19.004Z</time>
</trkpt>
<trkpt lat="-39.0066690" lon="175.8142940">
<ele>395.234131</ele>
<time>2013-09-24T21:55:26.996Z</time>
</trkpt>
<trkpt lat="-39.0067620" lon="175.8143210">
<ele>395.234131</ele>
<time>2013-09-24T21:55:34.003Z</time>
</trkpt>
<trkpt lat="-39.0068480" lon="175.8143830">
<ele>395.721863</ele>
<time>2013-09-24T21:55:42.004Z</time>
</trkpt>
<trkpt lat="-39.0069410" lon="175.8144320">
<ele>396.209534</ele>
<time>2013-09-24T21:55:49.996Z</time>
</trkpt>
<trkpt lat="-39.0070300" lon="175.8144910">
<ele>395.721863</ele>
<time>2013-09-24T21:55:57.996Z</time>
</trkpt>
<trkpt lat="-39.0071090" lon="175.8145590">
<ele>394.746460</ele>
<time>2013-09-24T21:56:05.004Z</time>
</trkpt>
<trkpt lat="-39.0071880" lon="175.8146200">
<ele>395.234131</ele>
<time>2013-09-24T21:56:13.004Z</time>
</trkpt>
<trkpt lat="-39.0072680" lon="175.8146910">
<ele>396.666718</ele>
<time>2013-09-24T21:56:21.998Z</time>
</trkpt>
<trkpt lat="-39.0073500" lon="175.8147600">
<ele>396.666718</ele>
<time>2013-09-24T21:56:31.001Z</time>
</trkpt>
<trkpt lat="-39.0074390" lon="175.8148130">
<ele>397.642059</ele>
<time>2013-09-24T21:56:39.002Z</time>
</trkpt>
<trkpt lat="-39.0075310" lon="175.8148390">
<ele>396.666718</ele>
<time>2013-09-24T21:56:47.003Z</time>
</trkpt>
<trkpt lat="-39.0076310" lon="175.8148470">
<ele>396.666718</ele>
<time>2013-09-24T21:56:55.003Z</time>
</trkpt>
<trkpt lat="-39.0077400" lon="175.8148670">
<ele>397.154388</ele>
<time>2013-09-24T21:57:03.997Z</time>
</trkpt>
<trkpt lat="-39.0078460" lon="175.8148740">
<ele>397.154388</ele>
<time>2013-09-24T21:57:11.998Z</time>
</trkpt>
<trkpt lat="-39.0079460" lon="175.8148830">
<ele>397.642059</ele>
<time>2013-09-24T21:57:19.999Z</time>
</trkpt>
<trkpt lat="-39.0080400" lon="175.8148730">
<ele>397.154388</ele>
<time>2013-09-24T21:57:26.997Z</time>
</trkpt>
<trkpt lat="-39.0081370" lon="175.8148660">
<ele>397.642059</ele>
<time>2013-09-24T21:57:34.998Z</time>
</trkpt>
<trkpt lat="-39.0082320" lon="175.8148440">
<ele>398.586945</ele>
<time>2013-09-24T21:57:42.998Z</time>
</trkpt>
<trkpt lat="-39.0083260" lon="175.8148370">
<ele>398.129730</ele>
<time>2013-09-24T21:57:49.997Z</time>
</trkpt>
<trkpt lat="-39.0084280" lon="175.8148480">
<ele>398.129730</ele>
<time>2013-09-24T21:57:57.997Z</time>
</trkpt>
<trkpt lat="-39.0085220" lon="175.8148740">
<ele>397.154388</ele>
<time>2013-09-24T21:58:05.998Z</time>
</trkpt>
<trkpt lat="-39.0086100" lon="175.8149120">
<ele>396.209534</ele>
<time>2013-09-24T21:58:12.996Z</time>
</trkpt>
<trkpt lat="-39.0087090" lon="175.8149500">
<ele>396.209534</ele>
<time>2013-09-24T21:58:20.997Z</time>
</trkpt>
<trkpt lat="-39.0088140" lon="175.8149660">
<ele>396.666718</ele>
<time>2013-09-24T21:58:30.000Z</time>
</trkpt>
<trkpt lat="-39.0089150" lon="175.8149850">
<ele>397.154388</ele>
<time>2013-09-24T21:58:36.998Z</time>
</trkpt>
<trkpt lat="-39.0090120" lon="175.8150100">
<ele>396.666718</ele>
<time>2013-09-24T21:58:44.999Z</time>
</trkpt>
<trkpt lat="-39.0091150" lon="175.8150420">
<ele>397.154388</ele>
<time>2013-09-24T21:58:53.000Z</time>
</trkpt>
<trkpt lat="-39.0092110" lon="175.8150770">
<ele>397.154388</ele>
<time>2013-09-24T21:59:01.000Z</time>
</trkpt>
<trkpt lat="-39.0093070" lon="175.8150880">
<ele>398.586945</ele>
<time>2013-09-24T21:59:10.997Z</time>
</trkpt>
<trkpt lat="-39.0094090" lon="175.8151020">
<ele>398.129730</ele>
<time>2013-09-24T21:59:20.000Z</time>
</trkpt>
<trkpt lat="-39.0095020" lon="175.8150810">
<ele>398.129730</ele>
<time>2013-09-24T21:59:26.998Z</time>
</trkpt>
<trkpt lat="-39.0095960" lon="175.8150380">
<ele>397.642059</ele>
<time>2013-09-24T21:59:37.003Z</time>
</trkpt>
<trkpt lat="-39.0096970" lon="175.8150130">
<ele>398.129730</ele>
<time>2013-09-24T21:59:45.997Z</time>
</trkpt>
<trkpt lat="-39.0097880" lon="175.8151010">
<ele>398.129730</ele>
<time>2013-09-24T21:59:53.998Z</time>
</trkpt>
<trkpt lat="-39.0098610" lon="175.8152020">
<ele>398.129730</ele>
<time>2013-09-24T22:00:01.999Z</time>
</trkpt>
<trkpt lat="-39.0099300" lon="175.8152940">
<ele>397.642059</ele>
<time>2013-09-24T22:00:09.999Z</time>
</trkpt>
<trkpt lat="-39.0099900" lon="175.8153990">
<ele>398.129730</ele>
<time>2013-09-24T22:00:18.000Z</time>
</trkpt>
<trkpt lat="-39.0100500" lon="175.8155030">
<ele>398.129730</ele>
<time>2013-09-24T22:00:26.001Z</time>
</trkpt>
<trkpt lat="-39.0101160" lon="175.8156050">
<ele>397.642059</ele>
<time>2013-09-24T22:00:34.001Z</time>
</trkpt>
<trkpt lat="-39.0101770" lon="175.8157080">
<ele>398.129730</ele>
<time>2013-09-24T22:00:42.002Z</time>
</trkpt>
<trkpt lat="-39.0102390" lon="175.8158100">
<ele>398.129730</ele>
<time>2013-09-24T22:00:50.003Z</time>
</trkpt>
<trkpt lat="-39.0102970" lon="175.8159160">
<ele>398.586945</ele>
<time>2013-09-24T22:00:58.003Z</time>
</trkpt>
<trkpt lat="-39.0103560" lon="175.8160180">
<ele>398.586945</ele>
<time>2013-09-24T22:01:06.004Z</time>
</trkpt>
<trkpt lat="-39.0104310" lon="175.8160990">
<ele>400.049988</ele>
<time>2013-09-24T22:01:13.996Z</time>
</trkpt>
<trkpt lat="-39.0105060" lon="175.8161890">
<ele>400.537659</ele>
<time>2013-09-24T22:01:21.996Z</time>
</trkpt>
<trkpt lat="-39.0105860" lon="175.8162680">
<ele>400.994873</ele>
<time>2013-09-24T22:01:29.997Z</time>
</trkpt>
<trkpt lat="-39.0106530" lon="175.8163490">
<ele>400.994873</ele>
<time>2013-09-24T22:01:37.004Z</time>
</trkpt>
<trkpt lat="-39.0107270" lon="175.8164360">
<ele>400.994873</ele>
<time>2013-09-24T22:01:44.996Z</time>
</trkpt>
<trkpt lat="-39.0107950" lon="175.8165280">
<ele>400.537659</ele>
<time>2013-09-24T22:01:52.997Z</time>
</trkpt>
<trkpt lat="-39.0108680" lon="175.8166100">
<ele>400.994873</ele>
<time>2013-09-24T22:02:00.997Z</time>
</trkpt>
<trkpt lat="-39.0109480" lon="175.8166970">
<ele>400.994873</ele>
<time>2013-09-24T22:02:08.998Z</time>
</trkpt>
<trkpt lat="-39.0110250" lon="175.8167750">
<ele>401.482544</ele>
<time>2013-09-24T22:02:16.999Z</time>
</trkpt>
<trkpt lat="-39.0111070" lon="175.8168370">
<ele>401.970245</ele>
<time>2013-09-24T22:02:24.999Z</time>
</trkpt>
<trkpt lat="-39.0111910" lon="175.8169110">
<ele>401.970245</ele>
<time>2013-09-24T22:02:33.000Z</time>
</trkpt>
<trkpt lat="-39.0112800" lon="175.8169710">
<ele>401.970245</ele>
<time>2013-09-24T22:02:41.001Z</time>
</trkpt>
<trkpt lat="-39.0113700" lon="175.8170170">
<ele>400.994873</ele>
<time>2013-09-24T22:02:49.001Z</time>
</trkpt>
<trkpt lat="-39.0114610" lon="175.8170530">
<ele>402.457916</ele>
<time>2013-09-24T22:02:57.002Z</time>
</trkpt>
<trkpt lat="-39.0115540" lon="175.8170960">
<ele>402.457916</ele>
<time>2013-09-24T22:03:05.003Z</time>
</trkpt>
<trkpt lat="-39.0116490" lon="175.8171410">
<ele>402.457916</ele>
<time>2013-09-24T22:03:16.001Z</time>
</trkpt>
<trkpt lat="-39.0117340" lon="175.8171860">
<ele>402.915131</ele>
<time>2013-09-24T22:03:24.002Z</time>
</trkpt>
<trkpt lat="-39.0118200" lon="175.8172270">
<ele>402.457916</ele>
<time>2013-09-24T22:03:32.003Z</time>
</trkpt>
<trkpt lat="-39.0119050" lon="175.8172690">
<ele>403.402802</ele>
<time>2013-09-24T22:03:40.003Z</time>
</trkpt>
<trkpt lat="-39.0119950" lon="175.8173070">
<ele>403.890472</ele>
<time>2013-09-24T22:03:48.004Z</time>
</trkpt>
<trkpt lat="-39.0120870" lon="175.8173500">
<ele>403.890472</ele>
<time>2013-09-24T22:03:55.996Z</time>
</trkpt>
<trkpt lat="-39.0121760" lon="175.8173870">
<ele>403.402802</ele>
<time>2013-09-24T22:04:03.996Z</time>
</trkpt>
<trkpt lat="-39.0122690" lon="175.8174330">
<ele>404.378143</ele>
<time>2013-09-24T22:04:11.997Z</time>
</trkpt>
<trkpt lat="-39.0123610" lon="175.8174820">
<ele>403.890472</ele>
<time>2013-09-24T22:04:19.998Z</time>
</trkpt>
<trkpt lat="-39.0124540" lon="175.8175260">
<ele>403.402802</ele>
<time>2013-09-24T22:04:27.998Z</time>
</trkpt>
<trkpt lat="-39.0125470" lon="175.8175780">
<ele>404.378143</ele>
<time>2013-09-24T22:04:35.999Z</time>
</trkpt>
<trkpt lat="-39.0126370" lon="175.8176280">
<ele>404.378143</ele>
<time>2013-09-24T22:04:44.000Z</time>
</trkpt>
<trkpt lat="-39.0127370" lon="175.8176750">
<ele>403.402802</ele>
<time>2013-09-24T22:04:52.000Z</time>
</trkpt>
<trkpt lat="-39.0128280" lon="175.8177330">
<ele>405.323059</ele>
<time>2013-09-24T22:05:00.001Z</time>
</trkpt>
<trkpt lat="-39.0129210" lon="175.8177760">
<ele>405.323059</ele>
<time>2013-09-24T22:05:08.002Z</time>
</trkpt>
<trkpt lat="-39.0130210" lon="175.8177910">
<ele>405.810730</ele>
<time>2013-09-24T22:05:16.002Z</time>
</trkpt>
<trkpt lat="-39.0131120" lon="175.8178470">
<ele>406.298401</ele>
<time>2013-09-24T22:05:24.003Z</time>
</trkpt>
<trkpt lat="-39.0132000" lon="175.8179050">
<ele>404.835358</ele>
<time>2013-09-24T22:05:32.004Z</time>
</trkpt>
<trkpt lat="-39.0133040" lon="175.8179600">
<ele>405.810730</ele>
<time>2013-09-24T22:05:43.002Z</time>
</trkpt>
<trkpt lat="-39.0134190" lon="175.8180130">
<ele>406.298401</ele>
<time>2013-09-24T22:05:51.996Z</time>
</trkpt>
<trkpt lat="-39.0135240" lon="175.8180520">
<ele>404.835358</ele>
<time>2013-09-24T22:05:59.997Z</time>
</trkpt>
<trkpt lat="-39.0136280" lon="175.8180910">
<ele>405.323059</ele>
<time>2013-09-24T22:06:07.998Z</time>
</trkpt>
<trkpt lat="-39.0137290" lon="175.8181370">
<ele>404.835358</ele>
<time>2013-09-24T22:06:15.998Z</time>
</trkpt>
<trkpt lat="-39.0138260" lon="175.8181840">
<ele>405.810730</ele>
<time>2013-09-24T22:06:23.999Z</time>
</trkpt>
<trkpt lat="-39.0139270" lon="175.8182320">
<ele>405.323059</ele>
<time>2013-09-24T22:06:32.000Z</time>
</trkpt>
<trkpt lat="-39.0140280" lon="175.8182580">
<ele>405.323059</ele>
<time>2013-09-24T22:06:40.000Z</time>
</trkpt>
<trkpt lat="-39.0141270" lon="175.8182580">
<ele>405.810730</ele>
<time>2013-09-24T22:06:48.001Z</time>
</trkpt>
<trkpt lat="-39.0142610" lon="175.8181630">
<ele>406.755615</ele>
<time>2013-09-24T22:07:47.997Z</time>
</trkpt>
<trkpt lat="-39.0143700" lon="175.8179800">
<ele>407.273743</ele>
<time>2013-09-24T22:08:38.999Z</time>
</trkpt>
<trkpt lat="-39.0144530" lon="175.8178010">
<ele>407.273743</ele>
<time>2013-09-24T22:08:56.003Z</time>
</trkpt>
<trkpt lat="-39.0145860" lon="175.8176300">
<ele>406.755615</ele>
<time>2013-09-24T22:09:14.000Z</time>
</trkpt>
<trkpt lat="-39.0147160" lon="175.8174900">
<ele>407.273743</ele>
<time>2013-09-24T22:09:27.996Z</time>
</trkpt>
<trkpt lat="-39.0148880" lon="175.8172940">
<ele>406.298401</ele>
<time>2013-09-24T22:09:43.998Z</time>
</trkpt>
<trkpt lat="-39.0150660" lon="175.8170710">
<ele>406.755615</ele>
<time>2013-09-24T22:09:59.999Z</time>
</trkpt>
<trkpt lat="-39.0152370" lon="175.8168240">
<ele>405.810730</ele>
<time>2013-09-24T22:10:18.998Z</time>
</trkpt>
<trkpt lat="-39.0153040" lon="175.8166300">
<ele>405.323059</ele>
<time>2013-09-24T22:10:32.002Z</time>
</trkpt>
<trkpt lat="-39.0153910" lon="175.8163970">
<ele>405.323059</ele>
<time>2013-09-24T22:10:48.996Z</time>
</trkpt>
<trkpt lat="-39.0154690" lon="175.8161950">
<ele>405.810730</ele>
<time>2013-09-24T22:11:02.000Z</time>
</trkpt>
<trkpt lat="-39.0155160" lon="175.8160110">
<ele>406.755615</ele>
<time>2013-09-24T22:11:15.996Z</time>
</trkpt>
<trkpt lat="-39.0155610" lon="175.8158800">
<ele>406.298401</ele>
<time>2013-09-24T22:11:23.997Z</time>
</trkpt>
<trkpt lat="-39.0156010" lon="175.8157560">
<ele>406.755615</ele>
<time>2013-09-24T22:11:31.998Z</time>
</trkpt>
<trkpt lat="-39.0156550" lon="175.8156320">
<ele>405.323059</ele>
<time>2013-09-24T22:11:39.998Z</time>
</trkpt>
<trkpt lat="-39.0157040" lon="175.8155080">
<ele>404.835358</ele>
<time>2013-09-24T22:11:47.999Z</time>
</trkpt>
<trkpt lat="-39.0157440" lon="175.8153840">
<ele>405.810730</ele>
<time>2013-09-24T22:11:56.000Z</time>
</trkpt>
<trkpt lat="-39.0157850" lon="175.8152690">
<ele>405.323059</ele>
<time>2013-09-24T22:12:04.000Z</time>
</trkpt>
<trkpt lat="-39.0157790" lon="175.8151540">
<ele>405.323059</ele>
<time>2013-09-24T22:12:12.001Z</time>
</trkpt>
<trkpt lat="-39.0157610" lon="175.8150190">
<ele>406.298401</ele>
<time>2013-09-24T22:12:23.000Z</time>
</trkpt>
<trkpt lat="-39.0157760" lon="175.8148740">
<ele>406.298401</ele>
<time>2013-09-24T22:12:32.996Z</time>
</trkpt>
<trkpt lat="-39.0158160" lon="175.8147280">
<ele>406.298401</ele>
<time>2013-09-24T22:12:43.001Z</time>
</trkpt>
<trkpt lat="-39.0158510" lon="175.8145710">
<ele>405.323059</ele>
<time>2013-09-24T22:12:52.998Z</time>
</trkpt>
<trkpt lat="-39.0158930" lon="175.8144450">
<ele>403.890472</ele>
<time>2013-09-24T22:13:02.001Z</time>
</trkpt>
<trkpt lat="-39.0159390" lon="175.8142970">
<ele>402.457916</ele>
<time>2013-09-24T22:13:12.999Z</time>
</trkpt>
<trkpt lat="-39.0160200" lon="175.8142040">
<ele>400.994873</ele>
<time>2013-09-24T22:13:21.000Z</time>
</trkpt>
<trkpt lat="-39.0160750" lon="175.8140620">
<ele>400.994873</ele>
<time>2013-09-24T22:13:30.003Z</time>
</trkpt>
<trkpt lat="-39.0161070" lon="175.8139340">
<ele>400.049988</ele>
<time>2013-09-24T22:13:37.001Z</time>
</trkpt>
<trkpt lat="-39.0161300" lon="175.8138120">
<ele>400.537659</ele>
<time>2013-09-24T22:13:44.000Z</time>
</trkpt>
<trkpt lat="-39.0161440" lon="175.8136780">
<ele>400.537659</ele>
<time>2013-09-24T22:13:52.000Z</time>
</trkpt>
<trkpt lat="-39.0161480" lon="175.8135570">
<ele>401.482544</ele>
<time>2013-09-24T22:14:00.001Z</time>
</trkpt>
<trkpt lat="-39.0161830" lon="175.8134160">
<ele>401.970245</ele>
<time>2013-09-24T22:14:09.004Z</time>
</trkpt>
<trkpt lat="-39.0162100" lon="175.8132670">
<ele>401.482544</ele>
<time>2013-09-24T22:14:17.998Z</time>
</trkpt>
<trkpt lat="-39.0162090" lon="175.8131330">
<ele>401.482544</ele>
<time>2013-09-24T22:14:25.999Z</time>
</trkpt>
<trkpt lat="-39.0162030" lon="175.8129980">
<ele>403.402802</ele>
<time>2013-09-24T22:14:36.004Z</time>
</trkpt>
<trkpt lat="-39.0162010" lon="175.8128540">
<ele>404.835358</ele>
<time>2013-09-24T22:14:47.003Z</time>
</trkpt>
<trkpt lat="-39.0162300" lon="175.8127170">
<ele>406.755615</ele>
<time>2013-09-24T22:15:00.999Z</time>
</trkpt>
<trkpt lat="-39.0162210" lon="175.8125720">
<ele>406.755615</ele>
<time>2013-09-24T22:15:10.002Z</time>
</trkpt>
<trkpt lat="-39.0162620" lon="175.8124490">
<ele>406.298401</ele>
<time>2013-09-24T22:15:19.999Z</time>
</trkpt>
<trkpt lat="-39.0163070" lon="175.8123140">
<ele>406.755615</ele>
<time>2013-09-24T22:15:30.004Z</time>
</trkpt>
<trkpt lat="-39.0163900" lon="175.8122010">
<ele>405.810730</ele>
<time>2013-09-24T22:15:38.998Z</time>
</trkpt>
<trkpt lat="-39.0164170" lon="175.8120870">
<ele>405.323059</ele>
<time>2013-09-24T22:15:46.999Z</time>
</trkpt>
<trkpt lat="-39.0164380" lon="175.8119710">
<ele>404.835358</ele>
<time>2013-09-24T22:15:54.999Z</time>
</trkpt>
<trkpt lat="-39.0164550" lon="175.8118440">
<ele>404.835358</ele>
<time>2013-09-24T22:16:04.002Z</time>
</trkpt>
<trkpt lat="-39.0164770" lon="175.8117220">
<ele>404.378143</ele>
<time>2013-09-24T22:16:12.003Z</time>
</trkpt>
<trkpt lat="-39.0164940" lon="175.8116050">
<ele>404.378143</ele>
<time>2013-09-24T22:16:20.004Z</time>
</trkpt>
<trkpt lat="-39.0165160" lon="175.8114670">
<ele>404.378143</ele>
<time>2013-09-24T22:16:28.998Z</time>
</trkpt>
<trkpt lat="-39.0165450" lon="175.8113540">
<ele>405.323059</ele>
<time>2013-09-24T22:16:36.998Z</time>
</trkpt>
<trkpt lat="-39.0166150" lon="175.8112660">
<ele>405.810730</ele>
<time>2013-09-24T22:16:44.999Z</time>
</trkpt>
<trkpt lat="-39.0166850" lon="175.8111790">
<ele>407.273743</ele>
<time>2013-09-24T22:16:54.002Z</time>
</trkpt>
<trkpt lat="-39.0167790" lon="175.8111180">
<ele>408.218658</ele>
<time>2013-09-24T22:17:03.998Z</time>
</trkpt>
<trkpt lat="-39.0168610" lon="175.8110310">
<ele>408.706329</ele>
<time>2013-09-24T22:17:14.004Z</time>
</trkpt>
<trkpt lat="-39.0169630" lon="175.8109590">
<ele>409.651215</ele>
<time>2013-09-24T22:17:26.998Z</time>
</trkpt>
<trkpt lat="-39.0170790" lon="175.8109610">
<ele>410.138885</ele>
<time>2013-09-24T22:17:37.997Z</time>
</trkpt>
<trkpt lat="-39.0172210" lon="175.8109730">
<ele>409.651215</ele>
<time>2013-09-24T22:17:51.000Z</time>
</trkpt>
<trkpt lat="-39.0173480" lon="175.8110330">
<ele>410.626556</ele>
<time>2013-09-24T22:18:04.003Z</time>
</trkpt>
<trkpt lat="-39.0174730" lon="175.8111430">
<ele>410.626556</ele>
<time>2013-09-24T22:18:16.998Z</time>
</trkpt>
<trkpt lat="-39.0175780" lon="175.8112770">
<ele>410.626556</ele>
<time>2013-09-24T22:18:28.999Z</time>
</trkpt>
<trkpt lat="-39.0177160" lon="175.8113730">
<ele>411.114258</ele>
<time>2013-09-24T22:18:41.000Z</time>
</trkpt>
<trkpt lat="-39.0178030" lon="175.8115110">
<ele>411.114258</ele>
<time>2013-09-24T22:18:50.003Z</time>
</trkpt>
<trkpt lat="-39.0178690" lon="175.8116380">
<ele>410.626556</ele>
<time>2013-09-24T22:18:58.997Z</time>
</trkpt>
<trkpt lat="-39.0179590" lon="175.8116900">
<ele>411.571442</ele>
<time>2013-09-24T22:19:08.000Z</time>
</trkpt>
<trkpt lat="-39.0180520" lon="175.8117210">
<ele>411.571442</ele>
<time>2013-09-24T22:19:17.003Z</time>
</trkpt>
<trkpt lat="-39.0181550" lon="175.8117390">
<ele>412.059113</ele>
<time>2013-09-24T22:19:25.997Z</time>
</trkpt>
<trkpt lat="-39.0182650" lon="175.8118230">
<ele>411.571442</ele>
<time>2013-09-24T22:19:37.998Z</time>
</trkpt>
<trkpt lat="-39.0183040" lon="175.8119700">
<ele>411.571442</ele>
<time>2013-09-24T22:19:45.998Z</time>
</trkpt>
<trkpt lat="-39.0183670" lon="175.8121010">
<ele>411.571442</ele>
<time>2013-09-24T22:19:53.999Z</time>
</trkpt>
<trkpt lat="-39.0184670" lon="175.8121580">
<ele>412.059113</ele>
<time>2013-09-24T22:20:03.002Z</time>
</trkpt>
<trkpt lat="-39.0185630" lon="175.8121800">
<ele>413.034485</ele>
<time>2013-09-24T22:20:11.996Z</time>
</trkpt>
<trkpt lat="-39.0186720" lon="175.8122060">
<ele>413.034485</ele>
<time>2013-09-24T22:20:22.001Z</time>
</trkpt>
<trkpt lat="-39.0188190" lon="175.8122820">
<ele>413.034485</ele>
<time>2013-09-24T22:20:35.998Z</time>
</trkpt>
<trkpt lat="-39.0189690" lon="175.8123850">
<ele>413.034485</ele>
<time>2013-09-24T22:20:50.004Z</time>
</trkpt>
<trkpt lat="-39.0190920" lon="175.8124870">
<ele>412.546814</ele>
<time>2013-09-24T22:20:58.998Z</time>
</trkpt>
<trkpt lat="-39.0192000" lon="175.8125960">
<ele>412.546814</ele>
<time>2013-09-24T22:21:08.001Z</time>
</trkpt>
<trkpt lat="-39.0192800" lon="175.8126620">
<ele>411.114258</ele>
<time>2013-09-24T22:21:17.997Z</time>
</trkpt>
<trkpt lat="-39.0193900" lon="175.8127190">
<ele>410.138885</ele>
<time>2013-09-24T22:21:27.000Z</time>
</trkpt>
<trkpt lat="-39.0194970" lon="175.8127520">
<ele>410.626556</ele>
<time>2013-09-24T22:21:35.001Z</time>
</trkpt>
<trkpt lat="-39.0196080" lon="175.8127530">
<ele>410.626556</ele>
<time>2013-09-24T22:21:44.997Z</time>
</trkpt>
<trkpt lat="-39.0197200" lon="175.8127490">
<ele>410.626556</ele>
<time>2013-09-24T22:21:55.002Z</time>
</trkpt>
<trkpt lat="-39.0198360" lon="175.8128310">
<ele>410.626556</ele>
<time>2013-09-24T22:22:07.003Z</time>
</trkpt>
<trkpt lat="-39.0199610" lon="175.8128840">
<ele>412.059113</ele>
<time>2013-09-24T22:22:19.004Z</time>
</trkpt>
<trkpt lat="-39.0200950" lon="175.8129100">
<ele>412.546814</ele>
<time>2013-09-24T22:22:30.003Z</time>
</trkpt>
<trkpt lat="-39.0202300" lon="175.8129940">
<ele>412.059113</ele>
<time>2013-09-24T22:22:41.002Z</time>
</trkpt>
<trkpt lat="-39.0203380" lon="175.8129980">
<ele>412.546814</ele>
<time>2013-09-24T22:22:49.002Z</time>
</trkpt>
<trkpt lat="-39.0204470" lon="175.8130200">
<ele>414.467041</ele>
<time>2013-09-24T22:23:05.997Z</time>
</trkpt>
<trkpt lat="-39.0206250" lon="175.8130520">
<ele>414.467041</ele>
<time>2013-09-24T22:23:20.003Z</time>
</trkpt>
<trkpt lat="-39.0208140" lon="175.8131010">
<ele>414.954742</ele>
<time>2013-09-24T22:23:33.999Z</time>
</trkpt>
<trkpt lat="-39.0209490" lon="175.8131470">
<ele>413.979340</ele>
<time>2013-09-24T22:23:47.996Z</time>
</trkpt>
<trkpt lat="-39.0211480" lon="175.8131660">
<ele>414.954742</ele>
<time>2013-09-24T22:24:02.002Z</time>
</trkpt>
<trkpt lat="-39.0212990" lon="175.8131770">
<ele>415.442413</ele>
<time>2013-09-24T22:24:17.001Z</time>
</trkpt>
<trkpt lat="-39.0214730" lon="175.8131940">
<ele>414.954742</ele>
<time>2013-09-24T22:24:29.002Z</time>
</trkpt>
<trkpt lat="-39.0215830" lon="175.8132210">
<ele>415.899597</ele>
<time>2013-09-24T22:24:38.998Z</time>
</trkpt>
<trkpt lat="-39.0217240" lon="175.8131740">
<ele>415.442413</ele>
<time>2013-09-24T22:24:48.001Z</time>
</trkpt>
<trkpt lat="-39.0218170" lon="175.8131780">
<ele>415.899597</ele>
<time>2013-09-24T22:24:59.000Z</time>
</trkpt>
<trkpt lat="-39.0219570" lon="175.8131530">
<ele>416.387268</ele>
<time>2013-09-24T22:25:11.001Z</time>
</trkpt>
<trkpt lat="-39.0221030" lon="175.8131180">
<ele>416.874939</ele>
<time>2013-09-24T22:25:24.004Z</time>
</trkpt>
<trkpt lat="-39.0222510" lon="175.8131260">
<ele>417.819855</ele>
<time>2013-09-24T22:25:35.003Z</time>
</trkpt>
<trkpt lat="-39.0224410" lon="175.8131250">
<ele>416.387268</ele>
<time>2013-09-24T22:25:50.002Z</time>
</trkpt>
<trkpt lat="-39.0226100" lon="175.8130970">
<ele>416.387268</ele>
<time>2013-09-24T22:26:02.996Z</time>
</trkpt>
<trkpt lat="-39.0227480" lon="175.8130780">
<ele>417.362640</ele>
<time>2013-09-24T22:26:14.997Z</time>
</trkpt>
<trkpt lat="-39.0228850" lon="175.8130710">
<ele>416.387268</ele>
<time>2013-09-24T22:26:29.003Z</time>
</trkpt>
<trkpt lat="-39.0230420" lon="175.8130530">
<ele>416.387268</ele>
<time>2013-09-24T22:26:41.997Z</time>
</trkpt>
<trkpt lat="-39.0232180" lon="175.8130750">
<ele>417.362640</ele>
<time>2013-09-24T22:26:59.001Z</time>
</trkpt>
<trkpt lat="-39.0233450" lon="175.8131080">
<ele>416.874939</ele>
<time>2013-09-24T22:27:15.002Z</time>
</trkpt>
<trkpt lat="-39.0235110" lon="175.8132220">
<ele>416.874939</ele>
<time>2013-09-24T22:28:01.001Z</time>
</trkpt>
<trkpt lat="-39.0236340" lon="175.8132980">
<ele>418.307526</ele>
<time>2013-09-24T22:28:10.998Z</time>
</trkpt>
<trkpt lat="-39.0237340" lon="175.8133320">
<ele>417.819855</ele>
<time>2013-09-24T22:28:21.996Z</time>
</trkpt>
<trkpt lat="-39.0238440" lon="175.8133580">
<ele>419.282867</ele>
<time>2013-09-24T22:28:32.002Z</time>
</trkpt>
<trkpt lat="-39.0239500" lon="175.8134060">
<ele>418.795197</ele>
<time>2013-09-24T22:28:41.998Z</time>
</trkpt>
<trkpt lat="-39.0240560" lon="175.8134500">
<ele>418.795197</ele>
<time>2013-09-24T22:28:55.001Z</time>
</trkpt>
<trkpt lat="-39.0241850" lon="175.8134870">
<ele>418.307526</ele>
<time>2013-09-24T22:29:03.002Z</time>
</trkpt>
<trkpt lat="-39.0243500" lon="175.8135520">
<ele>419.740082</ele>
<time>2013-09-24T22:29:14.001Z</time>
</trkpt>
<trkpt lat="-39.0244290" lon="175.8136490">
<ele>418.795197</ele>
<time>2013-09-24T22:29:23.997Z</time>
</trkpt>
<trkpt lat="-39.0245440" lon="175.8137280">
<ele>419.740082</ele>
<time>2013-09-24T22:29:35.998Z</time>
</trkpt>
<trkpt lat="-39.0246440" lon="175.8138830">
<ele>419.282867</ele>
<time>2013-09-24T22:29:54.997Z</time>
</trkpt>
<trkpt lat="-39.0247080" lon="175.8140300">
<ele>420.227753</ele>
<time>2013-09-24T22:30:05.996Z</time>
</trkpt>
<trkpt lat="-39.0246960" lon="175.8141710">
<ele>420.715454</ele>
<time>2013-09-24T22:30:16.001Z</time>
</trkpt>
<trkpt lat="-39.0246800" lon="175.8143160">
<ele>421.203125</ele>
<time>2013-09-24T22:30:25.998Z</time>
</trkpt>
<trkpt lat="-39.0247310" lon="175.8144700">
<ele>422.148010</ele>
<time>2013-09-24T22:30:36.996Z</time>
</trkpt>
<trkpt lat="-39.0248160" lon="175.8146000">
<ele>421.203125</ele>
<time>2013-09-24T22:30:47.002Z</time>
</trkpt>
<trkpt lat="-39.0248880" lon="175.8146950">
<ele>420.715454</ele>
<time>2013-09-24T22:30:55.002Z</time>
</trkpt>
<trkpt lat="-39.0249610" lon="175.8148130">
<ele>421.203125</ele>
<time>2013-09-24T22:31:03.996Z</time>
</trkpt>
<trkpt lat="-39.0250380" lon="175.8148960">
<ele>420.715454</ele>
<time>2013-09-24T22:31:14.002Z</time>
</trkpt>
<trkpt lat="-39.0251210" lon="175.8149950">
<ele>420.715454</ele>
<time>2013-09-24T22:31:23.998Z</time>
</trkpt>
<trkpt lat="-39.0252170" lon="175.8150770">
<ele>421.203125</ele>
<time>2013-09-24T22:31:34.003Z</time>
</trkpt>
<trkpt lat="-39.0253170" lon="175.8151960">
<ele>421.203125</ele>
<time>2013-09-24T22:31:44.000Z</time>
</trkpt>
<trkpt lat="-39.0254120" lon="175.8152760">
<ele>421.203125</ele>
<time>2013-09-24T22:31:56.001Z</time>
</trkpt>
<trkpt lat="-39.0255340" lon="175.8153700">
<ele>421.203125</ele>
<time>2013-09-24T22:32:06.999Z</time>
</trkpt>
<trkpt lat="-39.0256590" lon="175.8154600">
<ele>422.148010</ele>
<time>2013-09-24T22:32:20.996Z</time>
</trkpt>
<trkpt lat="-39.0257960" lon="175.8155720">
<ele>422.148010</ele>
<time>2013-09-24T22:32:33.999Z</time>
</trkpt>
<trkpt lat="-39.0259330" lon="175.8156710">
<ele>422.635681</ele>
<time>2013-09-24T22:32:46.000Z</time>
</trkpt>
<trkpt lat="-39.0260750" lon="175.8157790">
<ele>423.123352</ele>
<time>2013-09-24T22:32:59.997Z</time>
</trkpt>
<trkpt lat="-39.0262240" lon="175.8158090">
<ele>423.611053</ele>
<time>2013-09-24T22:33:11.998Z</time>
</trkpt>
<trkpt lat="-39.0263970" lon="175.8158300">
<ele>424.068268</ele>
<time>2013-09-24T22:33:26.997Z</time>
</trkpt>
<trkpt lat="-39.0265460" lon="175.8159040">
<ele>425.043610</ele>
<time>2013-09-24T22:33:41.996Z</time>
</trkpt>
<trkpt lat="-39.0266790" lon="175.8160070">
<ele>425.531281</ele>
<time>2013-09-24T22:33:53.997Z</time>
</trkpt>
<trkpt lat="-39.0268210" lon="175.8160990">
<ele>426.476135</ele>
<time>2013-09-24T22:34:05.998Z</time>
</trkpt>
<trkpt lat="-39.0269240" lon="175.8161680">
<ele>427.908722</ele>
<time>2013-09-24T22:34:16.003Z</time>
</trkpt>
<trkpt lat="-39.0270390" lon="175.8162160">
<ele>428.884064</ele>
<time>2013-09-24T22:34:27.002Z</time>
</trkpt>
<trkpt lat="-39.0271110" lon="175.8162860">
<ele>429.371735</ele>
<time>2013-09-24T22:37:39.000Z</time>
</trkpt>
<trkpt lat="-39.0271420" lon="175.8162790">
<ele>429.371735</ele>
<time>2013-09-24T22:38:15.003Z</time>
</trkpt>
<trkpt lat="-39.0271750" lon="175.8162960">
<ele>429.371735</ele>
<time>2013-09-24T22:49:29.001Z</time>
</trkpt>
<trkpt lat="-39.0271980" lon="175.8164180">
<ele>428.884064</ele>
<time>2013-09-24T22:50:36.997Z</time>
</trkpt>
<trkpt lat="-39.0272870" lon="175.8166060">
<ele>430.316650</ele>
<time>2013-09-24T22:50:55.003Z</time>
</trkpt>
<trkpt lat="-39.0273400" lon="175.8167380">
<ele>430.316650</ele>
<time>2013-09-24T22:51:07.004Z</time>
</trkpt>
<trkpt lat="-39.0274470" lon="175.8168750">
<ele>431.291992</ele>
<time>2013-09-24T22:51:18.996Z</time>
</trkpt>
<trkpt lat="-39.0275370" lon="175.8169630">
<ele>430.316650</ele>
<time>2013-09-24T22:51:30.004Z</time>
</trkpt>
<trkpt lat="-39.0276680" lon="175.8169800">
<ele>430.316650</ele>
<time>2013-09-24T22:51:42.998Z</time>
</trkpt>
<trkpt lat="-39.0278030" lon="175.8169910">
<ele>430.316650</ele>
<time>2013-09-24T22:51:53.997Z</time>
</trkpt>
<trkpt lat="-39.0278980" lon="175.8170580">
<ele>429.859467</ele>
<time>2013-09-24T22:52:03.000Z</time>
</trkpt>
<trkpt lat="-39.0280240" lon="175.8171180">
<ele>429.371735</ele>
<time>2013-09-24T22:53:14.004Z</time>
</trkpt>
<trkpt lat="-39.0281190" lon="175.8171800">
<ele>429.371735</ele>
<time>2013-09-24T22:53:24.000Z</time>
</trkpt>
<trkpt lat="-39.0281950" lon="175.8173120">
<ele>429.859467</ele>
<time>2013-09-24T22:53:34.999Z</time>
</trkpt>
<trkpt lat="-39.0282740" lon="175.8172930">
<ele>423.611053</ele>
<time>2013-09-24T22:53:55.000Z</time>
</trkpt>
<trkpt lat="-39.0283260" lon="175.8173320">
<ele>419.282867</ele>
<time>2013-09-24T22:54:32.999Z</time>
</trkpt>
<trkpt lat="-39.0283910" lon="175.8173940">
<ele>415.899597</ele>
<time>2013-09-24T22:54:50.003Z</time>
</trkpt>
<trkpt lat="-39.0283860" lon="175.8172570">
<ele>414.467041</ele>
<time>2013-09-24T22:55:06.004Z</time>
</trkpt>
<trkpt lat="-39.0283900" lon="175.8172730">
<ele>412.546814</ele>
<time>2013-09-24T22:55:39.000Z</time>
</trkpt>
<trkpt lat="-39.0285530" lon="175.8173660">
<ele>413.979340</ele>
<time>2013-09-24T22:55:55.001Z</time>
</trkpt>
<trkpt lat="-39.0286850" lon="175.8173550">
<ele>414.467041</ele>
<time>2013-09-24T22:56:07.002Z</time>
</trkpt>
<trkpt lat="-39.0288220" lon="175.8172620">
<ele>414.467041</ele>
<time>2013-09-24T22:56:19.003Z</time>
</trkpt>
<trkpt lat="-39.0289370" lon="175.8171890">
<ele>414.467041</ele>
<time>2013-09-24T22:56:30.002Z</time>
</trkpt>
<trkpt lat="-39.0290660" lon="175.8171080">
<ele>413.979340</ele>
<time>2013-09-24T22:56:47.999Z</time>
</trkpt>
<trkpt lat="-39.0291520" lon="175.8169990">
<ele>413.979340</ele>
<time>2013-09-24T22:56:58.998Z</time>
</trkpt>
<trkpt lat="-39.0292500" lon="175.8168840">
<ele>413.979340</ele>
<time>2013-09-24T22:57:09.996Z</time>
</trkpt>
<trkpt lat="-39.0293180" lon="175.8167810">
<ele>413.979340</ele>
<time>2013-09-24T22:57:17.997Z</time>
</trkpt>
<trkpt lat="-39.0293790" lon="175.8166610">
<ele>414.467041</ele>
<time>2013-09-24T22:57:27.000Z</time>
</trkpt>
<trkpt lat="-39.0294350" lon="175.8165520">
<ele>413.979340</ele>
<time>2013-09-24T22:57:35.001Z</time>
</trkpt>
<trkpt lat="-39.0295120" lon="175.8164560">
<ele>414.467041</ele>
<time>2013-09-24T22:57:44.997Z</time>
</trkpt>
<trkpt lat="-39.0296110" lon="175.8164050">
<ele>413.979340</ele>
<time>2013-09-24T22:57:52.998Z</time>
</trkpt>
<trkpt lat="-39.0297260" lon="175.8163700">
<ele>413.979340</ele>
<time>2013-09-24T22:58:03.996Z</time>
</trkpt>
<trkpt lat="-39.0298480" lon="175.8163230">
<ele>413.491669</ele>
<time>2013-09-24T22:58:15.004Z</time>
</trkpt>
<trkpt lat="-39.0299390" lon="175.8162400">
<ele>413.979340</ele>
<time>2013-09-24T22:58:22.996Z</time>
</trkpt>
<trkpt lat="-39.0300170" lon="175.8161460">
<ele>413.979340</ele>
<time>2013-09-24T22:58:33.001Z</time>
</trkpt>
<trkpt lat="-39.0301070" lon="175.8160450">
<ele>413.979340</ele>
<time>2013-09-24T22:58:42.997Z</time>
</trkpt>
<trkpt lat="-39.0302180" lon="175.8159630">
<ele>413.979340</ele>
<time>2013-09-24T22:58:53.996Z</time>
</trkpt>
<trkpt lat="-39.0303350" lon="175.8158880">
<ele>413.491669</ele>
<time>2013-09-24T22:59:05.997Z</time>
</trkpt>
<trkpt lat="-39.0304620" lon="175.8158010">
<ele>413.491669</ele>
<time>2013-09-24T22:59:16.996Z</time>
</trkpt>
<trkpt lat="-39.0305500" lon="175.8156900">
<ele>413.979340</ele>
<time>2013-09-24T22:59:25.999Z</time>
</trkpt>
<trkpt lat="-39.0306250" lon="175.8155840">
<ele>413.979340</ele>
<time>2013-09-24T22:59:35.002Z</time>
</trkpt>
<trkpt lat="-39.0307150" lon="175.8154540">
<ele>413.491669</ele>
<time>2013-09-24T23:00:00.999Z</time>
</trkpt>
<trkpt lat="-39.0308390" lon="175.8154380">
<ele>415.442413</ele>
<time>2013-09-24T23:00:22.997Z</time>
</trkpt>
<trkpt lat="-39.0309400" lon="175.8154760">
<ele>417.362640</ele>
<time>2013-09-24T23:00:34.004Z</time>
</trkpt>
<trkpt lat="-39.0310210" lon="175.8154250">
<ele>418.795197</ele>
<time>2013-09-24T23:00:45.003Z</time>
</trkpt>
<trkpt lat="-39.0310750" lon="175.8153060">
<ele>418.795197</ele>
<time>2013-09-24T23:00:56.002Z</time>
</trkpt>
<trkpt lat="-39.0310800" lon="175.8151360">
<ele>418.307526</ele>
<time>2013-09-24T23:01:08.003Z</time>
</trkpt>
<trkpt lat="-39.0311200" lon="175.8149910">
<ele>417.819855</ele>
<time>2013-09-24T23:01:17.999Z</time>
</trkpt>
<trkpt lat="-39.0311080" lon="175.8148520">
<ele>419.282867</ele>
<time>2013-09-24T23:01:31.002Z</time>
</trkpt>
<trkpt lat="-39.0311220" lon="175.8146730">
<ele>420.227753</ele>
<time>2013-09-24T23:01:46.001Z</time>
</trkpt>
<trkpt lat="-39.0311730" lon="175.8145490">
<ele>420.227753</ele>
<time>2013-09-24T23:01:57.000Z</time>
</trkpt>
<trkpt lat="-39.0312390" lon="175.8144260">
<ele>419.740082</ele>
<time>2013-09-24T23:02:07.999Z</time>
</trkpt>
<trkpt lat="-39.0313580" lon="175.8143520">
<ele>420.227753</ele>
<time>2013-09-24T23:02:20.000Z</time>
</trkpt>
<trkpt lat="-39.0314390" lon="175.8142520">
<ele>418.307526</ele>
<time>2013-09-24T23:02:29.996Z</time>
</trkpt>
<trkpt lat="-39.0315030" lon="175.8141280">
<ele>418.307526</ele>
<time>2013-09-24T23:02:56.996Z</time>
</trkpt>
<trkpt lat="-39.0315530" lon="175.8139860">
<ele>420.227753</ele>
<time>2013-09-24T23:03:39.004Z</time>
</trkpt>
<trkpt lat="-39.0315410" lon="175.8138660">
<ele>421.203125</ele>
<time>2013-09-24T23:04:25.003Z</time>
</trkpt>
<trkpt lat="-39.0315340" lon="175.8137550">
<ele>421.690796</ele>
<time>2013-09-24T23:05:00.004Z</time>
</trkpt>
<trkpt lat="-39.0315300" lon="175.8136370">
<ele>421.690796</ele>
<time>2013-09-24T23:05:08.998Z</time>
</trkpt>
<trkpt lat="-39.0315290" lon="175.8135100">
<ele>421.690796</ele>
<time>2013-09-24T23:05:19.003Z</time>
</trkpt>
<trkpt lat="-39.0315100" lon="175.8134020">
<ele>421.690796</ele>
<time>2013-09-24T23:05:34.002Z</time>
</trkpt>
<trkpt lat="-39.0314040" lon="175.8133730">
<ele>419.282867</ele>
<time>2013-09-24T23:05:46.003Z</time>
</trkpt>
<trkpt lat="-39.0312790" lon="175.8133040">
<ele>421.203125</ele>
<time>2013-09-24T23:06:01.002Z</time>
</trkpt>
<trkpt lat="-39.0312150" lon="175.8132170">
<ele>423.611053</ele>
<time>2013-09-24T23:06:13.003Z</time>
</trkpt>
<trkpt lat="-39.0312960" lon="175.8132580">
<ele>425.531281</ele>
<time>2013-09-24T23:06:29.998Z</time>
</trkpt>
<trkpt lat="-39.0314000" lon="175.8132360">
<ele>425.531281</ele>
<time>2013-09-24T23:06:40.997Z</time>
</trkpt>
<trkpt lat="-39.0314920" lon="175.8132210">
<ele>425.531281</ele>
<time>2013-09-24T23:06:51.002Z</time>
</trkpt>
<trkpt lat="-39.0315500" lon="175.8132240">
<ele>425.988464</ele>
<time>2013-09-24T23:08:09.004Z</time>
</trkpt>
<trkpt lat="-39.0315980" lon="175.8131840">
<ele>425.988464</ele>
<time>2013-09-24T23:10:08.003Z</time>
</trkpt>
<trkpt lat="-39.0316790" lon="175.8131500">
<ele>426.476135</ele>
<time>2013-09-24T23:10:16.997Z</time>
</trkpt>
<trkpt lat="-39.0317710" lon="175.8130930">
<ele>425.988464</ele>
<time>2013-09-24T23:10:26.000Z</time>
</trkpt>
<trkpt lat="-39.0317980" lon="175.8129820">
<ele>425.531281</ele>
<time>2013-09-24T23:10:35.003Z</time>
</trkpt>
<trkpt lat="-39.0316920" lon="175.8129250">
<ele>423.611053</ele>
<time>2013-09-24T23:10:43.997Z</time>
</trkpt>
<trkpt lat="-39.0316040" lon="175.8128710">
<ele>421.690796</ele>
<time>2013-09-24T23:10:51.997Z</time>
</trkpt>
<trkpt lat="-39.0315070" lon="175.8128740">
<ele>422.148010</ele>
<time>2013-09-24T23:11:02.003Z</time>
</trkpt>
<trkpt lat="-39.0314280" lon="175.8128290">
<ele>425.531281</ele>
<time>2013-09-24T23:11:13.001Z</time>
</trkpt>
<trkpt lat="-39.0313080" lon="175.8127980">
<ele>425.988464</ele>
<time>2013-09-24T23:11:26.998Z</time>
</trkpt>
<trkpt lat="-39.0312020" lon="175.8127220">
<ele>425.988464</ele>
<time>2013-09-24T23:11:37.003Z</time>
</trkpt>
<trkpt lat="-39.0310900" lon="175.8126730">
<ele>425.531281</ele>
<time>2013-09-24T23:11:49.004Z</time>
</trkpt>
<trkpt lat="-39.0309720" lon="175.8125880">
<ele>425.988464</ele>
<time>2013-09-24T23:12:00.003Z</time>
</trkpt>
<trkpt lat="-39.0308480" lon="175.8125280">
<ele>425.043610</ele>
<time>2013-09-24T23:12:09.999Z</time>
</trkpt>
<trkpt lat="-39.0307410" lon="175.8124940">
<ele>425.043610</ele>
<time>2013-09-24T23:12:18.000Z</time>
</trkpt>
<trkpt lat="-39.0306430" lon="175.8124400">
<ele>425.043610</ele>
<time>2013-09-24T23:12:27.003Z</time>
</trkpt>
<trkpt lat="-39.0305470" lon="175.8123720">
<ele>425.043610</ele>
<time>2013-09-24T23:12:35.004Z</time>
</trkpt>
<trkpt lat="-39.0304420" lon="175.8123140">
<ele>425.043610</ele>
<time>2013-09-24T23:12:43.004Z</time>
</trkpt>
<trkpt lat="-39.0303450" lon="175.8122190">
<ele>425.043610</ele>
<time>2013-09-24T23:12:51.998Z</time>
</trkpt>
<trkpt lat="-39.0302360" lon="175.8121670">
<ele>424.555939</ele>
<time>2013-09-24T23:13:01.001Z</time>
</trkpt>
<trkpt lat="-39.0301210" lon="175.8121030">
<ele>425.043610</ele>
<time>2013-09-24T23:13:09.002Z</time>
</trkpt>
<trkpt lat="-39.0300210" lon="175.8120470">
<ele>424.555939</ele>
<time>2013-09-24T23:13:17.003Z</time>
</trkpt>
<trkpt lat="-39.0299200" lon="175.8119880">
<ele>424.068268</ele>
<time>2013-09-24T23:13:25.997Z</time>
</trkpt>
<trkpt lat="-39.0298110" lon="175.8119660">
<ele>423.611053</ele>
<time>2013-09-24T23:13:35.000Z</time>
</trkpt>
<trkpt lat="-39.0297000" lon="175.8119120">
<ele>424.068268</ele>
<time>2013-09-24T23:13:47.001Z</time>
</trkpt>
<trkpt lat="-39.0295620" lon="175.8118700">
<ele>424.555939</ele>
<time>2013-09-24T23:13:56.997Z</time>
</trkpt>
<trkpt lat="-39.0294310" lon="175.8118450">
<ele>423.611053</ele>
<time>2013-09-24T23:14:07.002Z</time>
</trkpt>
<trkpt lat="-39.0293170" lon="175.8117690">
<ele>423.123352</ele>
<time>2013-09-24T23:14:16.999Z</time>
</trkpt>
<trkpt lat="-39.0292210" lon="175.8116540">
<ele>421.690796</ele>
<time>2013-09-24T23:14:26.002Z</time>
</trkpt>
<trkpt lat="-39.0291150" lon="175.8115910">
<ele>420.715454</ele>
<time>2013-09-24T23:14:34.996Z</time>
</trkpt>
<trkpt lat="-39.0290140" lon="175.8115440">
<ele>419.740082</ele>
<time>2013-09-24T23:14:42.996Z</time>
</trkpt>
<trkpt lat="-39.0289120" lon="175.8115700">
<ele>419.740082</ele>
<time>2013-09-24T23:14:51.999Z</time>
</trkpt>
<trkpt lat="-39.0288050" lon="175.8114940">
<ele>419.282867</ele>
<time>2013-09-24T23:15:01.002Z</time>
</trkpt>
<trkpt lat="-39.0286970" lon="175.8113950">
<ele>419.282867</ele>
<time>2013-09-24T23:15:12.001Z</time>
</trkpt>
<trkpt lat="-39.0285860" lon="175.8113300">
<ele>419.740082</ele>
<time>2013-09-24T23:15:20.002Z</time>
</trkpt>
<trkpt lat="-39.0284830" lon="175.8112840">
<ele>418.795197</ele>
<time>2013-09-24T23:15:28.002Z</time>
</trkpt>
<trkpt lat="-39.0283890" lon="175.8112130">
<ele>418.307526</ele>
<time>2013-09-24T23:15:36.003Z</time>
</trkpt>
<trkpt lat="-39.0282850" lon="175.8111610">
<ele>418.795197</ele>
<time>2013-09-24T23:15:44.004Z</time>
</trkpt>
<trkpt lat="-39.0281960" lon="175.8111060">
<ele>418.795197</ele>
<time>2013-09-24T23:15:51.002Z</time>
</trkpt>
<trkpt lat="-39.0281230" lon="175.8110090">
<ele>418.307526</ele>
<time>2013-09-24T23:15:59.003Z</time>
</trkpt>
<trkpt lat="-39.0280220" lon="175.8109800">
<ele>418.795197</ele>
<time>2013-09-24T23:16:07.003Z</time>
</trkpt>
<trkpt lat="-39.0279120" lon="175.8109400">
<ele>418.795197</ele>
<time>2013-09-24T23:16:15.997Z</time>
</trkpt>
<trkpt lat="-39.0278220" lon="175.8108940">
<ele>419.740082</ele>
<time>2013-09-24T23:16:23.998Z</time>
</trkpt>
<trkpt lat="-39.0277160" lon="175.8108430">
<ele>418.795197</ele>
<time>2013-09-24T23:16:34.003Z</time>
</trkpt>
<trkpt lat="-39.0276130" lon="175.8107910">
<ele>417.819855</ele>
<time>2013-09-24T23:16:42.997Z</time>
</trkpt>
<trkpt lat="-39.0275040" lon="175.8107210">
<ele>417.362640</ele>
<time>2013-09-24T23:16:53.003Z</time>
</trkpt>
<trkpt lat="-39.0273950" lon="175.8106610">
<ele>416.874939</ele>
<time>2013-09-24T23:17:01.997Z</time>
</trkpt>
<trkpt lat="-39.0272950" lon="175.8106060">
<ele>416.387268</ele>
<time>2013-09-24T23:17:09.997Z</time>
</trkpt>
<trkpt lat="-39.0271980" lon="175.8105640">
<ele>415.899597</ele>
<time>2013-09-24T23:17:17.998Z</time>
</trkpt>
<trkpt lat="-39.0271000" lon="175.8105130">
<ele>415.442413</ele>
<time>2013-09-24T23:17:25.999Z</time>
</trkpt>
<trkpt lat="-39.0270070" lon="175.8104770">
<ele>415.442413</ele>
<time>2013-09-24T23:17:33.999Z</time>
</trkpt>
<trkpt lat="-39.0269050" lon="175.8104290">
<ele>415.899597</ele>
<time>2013-09-24T23:17:42.000Z</time>
</trkpt>
<trkpt lat="-39.0268040" lon="175.8103890">
<ele>415.442413</ele>
<time>2013-09-24T23:17:50.001Z</time>
</trkpt>
<trkpt lat="-39.0267020" lon="175.8103560">
<ele>414.954742</ele>
<time>2013-09-24T23:17:58.001Z</time>
</trkpt>
<trkpt lat="-39.0265980" lon="175.8103610">
<ele>414.954742</ele>
<time>2013-09-24T23:18:07.004Z</time>
</trkpt>
<trkpt lat="-39.0264900" lon="175.8103400">
<ele>414.467041</ele>
<time>2013-09-24T23:18:15.998Z</time>
</trkpt>
<trkpt lat="-39.0263830" lon="175.8103300">
<ele>413.979340</ele>
<time>2013-09-24T23:18:25.001Z</time>
</trkpt>
<trkpt lat="-39.0262810" lon="175.8102640">
<ele>414.467041</ele>
<time>2013-09-24T23:18:34.004Z</time>
</trkpt>
<trkpt lat="-39.0261720" lon="175.8102380">
<ele>414.467041</ele>
<time>2013-09-24T23:18:42.998Z</time>
</trkpt>
<trkpt lat="-39.0260640" lon="175.8102480">
<ele>414.467041</ele>
<time>2013-09-24T23:18:53.004Z</time>
</trkpt>
<trkpt lat="-39.0259410" lon="175.8102790">
<ele>416.387268</ele>
<time>2013-09-24T23:19:04.996Z</time>
</trkpt>
<trkpt lat="-39.0258130" lon="175.8102650">
<ele>417.362640</ele>
<time>2013-09-24T23:19:17.999Z</time>
</trkpt>
<trkpt lat="-39.0256800" lon="175.8102300">
<ele>418.795197</ele>
<time>2013-09-24T23:19:31.002Z</time>
</trkpt>
<trkpt lat="-39.0255900" lon="175.8102290">
<ele>420.227753</ele>
<time>2013-09-24T23:19:43.997Z</time>
</trkpt>
<trkpt lat="-39.0254780" lon="175.8102890">
<ele>421.203125</ele>
<time>2013-09-24T23:19:55.998Z</time>
</trkpt>
<trkpt lat="-39.0253120" lon="175.8103850">
<ele>420.715454</ele>
<time>2013-09-24T23:20:52.996Z</time>
</trkpt>
<trkpt lat="-39.0252300" lon="175.8104210">
<ele>420.715454</ele>
<time>2013-09-24T23:21:30.001Z</time>
</trkpt>
<trkpt lat="-39.0251650" lon="175.8105510">
<ele>420.227753</ele>
<time>2013-09-24T23:21:45.000Z</time>
</trkpt>
<trkpt lat="-39.0250800" lon="175.8106920">
<ele>419.282867</ele>
<time>2013-09-24T23:22:13.002Z</time>
</trkpt>
<trkpt lat="-39.0250030" lon="175.8108310">
<ele>419.740082</ele>
<time>2013-09-24T23:22:26.999Z</time>
</trkpt>
<trkpt lat="-39.0249060" lon="175.8109230">
<ele>419.282867</ele>
<time>2013-09-24T23:22:39.000Z</time>
</trkpt>
<trkpt lat="-39.0247850" lon="175.8109520">
<ele>417.819855</ele>
<time>2013-09-24T23:22:49.999Z</time>
</trkpt>
<trkpt lat="-39.0246370" lon="175.8109200">
<ele>418.795197</ele>
<time>2013-09-24T23:23:10.000Z</time>
</trkpt>
<trkpt lat="-39.0245150" lon="175.8108810">
<ele>418.307526</ele>
<time>2013-09-24T23:23:26.002Z</time>
</trkpt>
<trkpt lat="-39.0243880" lon="175.8107870">
<ele>417.362640</ele>
<time>2013-09-24T23:23:38.003Z</time>
</trkpt>
<trkpt lat="-39.0242390" lon="175.8106170">
<ele>418.307526</ele>
<time>2013-09-24T23:23:57.002Z</time>
</trkpt>
<trkpt lat="-39.0240810" lon="175.8105360">
<ele>417.362640</ele>
<time>2013-09-24T23:24:25.004Z</time>
</trkpt>
<trkpt lat="-39.0239930" lon="175.8104450">
<ele>417.819855</ele>
<time>2013-09-24T23:24:40.003Z</time>
</trkpt>
<trkpt lat="-39.0238660" lon="175.8103990">
<ele>417.819855</ele>
<time>2013-09-24T23:24:50.000Z</time>
</trkpt>
<trkpt lat="-39.0237340" lon="175.8103340">
<ele>418.307526</ele>
<time>2013-09-24T23:25:02.001Z</time>
</trkpt>
<trkpt lat="-39.0235720" lon="175.8102590">
<ele>417.362640</ele>
<time>2013-09-24T23:25:15.997Z</time>
</trkpt>
<trkpt lat="-39.0234330" lon="175.8102640">
<ele>418.795197</ele>
<time>2013-09-24T23:25:29.001Z</time>
</trkpt>
<trkpt lat="-39.0233010" lon="175.8102380">
<ele>418.307526</ele>
<time>2013-09-24T23:25:39.999Z</time>
</trkpt>
<trkpt lat="-39.0231820" lon="175.8102620">
<ele>417.819855</ele>
<time>2013-09-24T23:25:49.996Z</time>
</trkpt>
<trkpt lat="-39.0230620" lon="175.8102750">
<ele>416.874939</ele>
<time>2013-09-24T23:26:01.003Z</time>
</trkpt>
<trkpt lat="-39.0229330" lon="175.8102780">
<ele>415.899597</ele>
<time>2013-09-24T23:26:12.002Z</time>
</trkpt>
<trkpt lat="-39.0227810" lon="175.8102670">
<ele>416.387268</ele>
<time>2013-09-24T23:26:24.003Z</time>
</trkpt>
<trkpt lat="-39.0226650" lon="175.8102280">
<ele>415.899597</ele>
<time>2013-09-24T23:26:32.004Z</time>
</trkpt>
<trkpt lat="-39.0225740" lon="175.8101540">
<ele>415.899597</ele>
<time>2013-09-24T23:26:40.998Z</time>
</trkpt>
<trkpt lat="-39.0224730" lon="175.8101300">
<ele>416.387268</ele>
<time>2013-09-24T23:26:50.001Z</time>
</trkpt>
<trkpt lat="-39.0223680" lon="175.8101000">
<ele>415.899597</ele>
<time>2013-09-24T23:26:59.997Z</time>
</trkpt>
<trkpt lat="-39.0222670" lon="175.8101020">
<ele>414.954742</ele>
<time>2013-09-24T23:27:09.000Z</time>
</trkpt>
<trkpt lat="-39.0221710" lon="175.8100620">
<ele>413.491669</ele>
<time>2013-09-24T23:27:18.003Z</time>
</trkpt>
<trkpt lat="-39.0220980" lon="175.8099570">
<ele>412.546814</ele>
<time>2013-09-24T23:27:26.997Z</time>
</trkpt>
<trkpt lat="-39.0220200" lon="175.8098800">
<ele>412.059113</ele>
<time>2013-09-24T23:27:34.004Z</time>
</trkpt>
<trkpt lat="-39.0219380" lon="175.8097920">
<ele>411.571442</ele>
<time>2013-09-24T23:27:41.996Z</time>
</trkpt>
<trkpt lat="-39.0218560" lon="175.8097000">
<ele>411.114258</ele>
<time>2013-09-24T23:27:49.997Z</time>
</trkpt>
<trkpt lat="-39.0217680" lon="175.8096540">
<ele>410.626556</ele>
<time>2013-09-24T23:27:57.004Z</time>
</trkpt>
<trkpt lat="-39.0216860" lon="175.8095870">
<ele>410.626556</ele>
<time>2013-09-24T23:28:04.996Z</time>
</trkpt>
<trkpt lat="-39.0216070" lon="175.8095150">
<ele>409.651215</ele>
<time>2013-09-24T23:28:12.996Z</time>
</trkpt>
<trkpt lat="-39.0215330" lon="175.8094430">
<ele>408.706329</ele>
<time>2013-09-24T23:28:20.004Z</time>
</trkpt>
<trkpt lat="-39.0214320" lon="175.8094120">
<ele>408.218658</ele>
<time>2013-09-24T23:28:28.004Z</time>
</trkpt>
<trkpt lat="-39.0213280" lon="175.8094270">
<ele>407.730957</ele>
<time>2013-09-24T23:28:35.996Z</time>
</trkpt>
<trkpt lat="-39.0212290" lon="175.8094520">
<ele>407.273743</ele>
<time>2013-09-24T23:28:43.997Z</time>
</trkpt>
<trkpt lat="-39.0211390" lon="175.8093600">
<ele>406.755615</ele>
<time>2013-09-24T23:29:29.996Z</time>
</trkpt>
<trkpt lat="-39.0210330" lon="175.8093540">
<ele>407.730957</ele>
<time>2013-09-24T23:29:41.997Z</time>
</trkpt>
<trkpt lat="-39.0208970" lon="175.8093690">
<ele>408.218658</ele>
<time>2013-09-24T23:30:12.997Z</time>
</trkpt>
<trkpt lat="-39.0207910" lon="175.8093630">
<ele>409.194000</ele>
<time>2013-09-24T23:30:23.003Z</time>
</trkpt>
<trkpt lat="-39.0206760" lon="175.8093580">
<ele>410.626556</ele>
<time>2013-09-24T23:30:34.001Z</time>
</trkpt>
<trkpt lat="-39.0205600" lon="175.8093840">
<ele>412.059113</ele>
<time>2013-09-24T23:30:45.000Z</time>
</trkpt>
<trkpt lat="-39.0204460" lon="175.8093130">
<ele>414.467041</ele>
<time>2013-09-24T23:31:01.001Z</time>
</trkpt>
<trkpt lat="-39.0203590" lon="175.8092120">
<ele>413.979340</ele>
<time>2013-09-24T23:31:13.002Z</time>
</trkpt>
<trkpt lat="-39.0202580" lon="175.8091360">
<ele>413.979340</ele>
<time>2013-09-24T23:31:22.999Z</time>
</trkpt>
<trkpt lat="-39.0201280" lon="175.8090580">
<ele>413.491669</ele>
<time>2013-09-24T23:31:33.004Z</time>
</trkpt>
<trkpt lat="-39.0200210" lon="175.8090300">
<ele>414.467041</ele>
<time>2013-09-24T23:31:40.996Z</time>
</trkpt>
<trkpt lat="-39.0199170" lon="175.8089830">
<ele>414.467041</ele>
<time>2013-09-24T23:31:51.001Z</time>
</trkpt>
<trkpt lat="-39.0198030" lon="175.8089600">
<ele>413.979340</ele>
<time>2013-09-24T23:32:00.997Z</time>
</trkpt>
<trkpt lat="-39.0196850" lon="175.8090000">
<ele>413.491669</ele>
<time>2013-09-24T23:32:11.996Z</time>
</trkpt>
<trkpt lat="-39.0195830" lon="175.8090640">
<ele>413.034485</ele>
<time>2013-09-24T23:32:19.997Z</time>
</trkpt>
<trkpt lat="-39.0195040" lon="175.8091320">
<ele>413.034485</ele>
<time>2013-09-24T23:32:34.996Z</time>
</trkpt>
<trkpt lat="-39.0194200" lon="175.8091370">
<ele>413.491669</ele>
<time>2013-09-24T23:34:03.996Z</time>
</trkpt>
<trkpt lat="-39.0193180" lon="175.8091200">
<ele>413.979340</ele>
<time>2013-09-24T23:34:12.999Z</time>
</trkpt>
<trkpt lat="-39.0192290" lon="175.8091020">
<ele>413.491669</ele>
<time>2013-09-24T23:34:21.000Z</time>
</trkpt>
<trkpt lat="-39.0191320" lon="175.8090830">
<ele>413.491669</ele>
<time>2013-09-24T23:34:29.001Z</time>
</trkpt>
<trkpt lat="-39.0190390" lon="175.8090610">
<ele>413.491669</ele>
<time>2013-09-24T23:34:37.001Z</time>
</trkpt>
<trkpt lat="-39.0189470" lon="175.8090510">
<ele>413.979340</ele>
<time>2013-09-24T23:35:04.001Z</time>
</trkpt>
<trkpt lat="-39.0188550" lon="175.8090270">
<ele>413.491669</ele>
<time>2013-09-24T23:35:13.004Z</time>
</trkpt>
<trkpt lat="-39.0187690" lon="175.8090070">
<ele>413.491669</ele>
<time>2013-09-24T23:35:29.999Z</time>
</trkpt>
<trkpt lat="-39.0186710" lon="175.8089890">
<ele>413.979340</ele>
<time>2013-09-24T23:35:39.002Z</time>
</trkpt>
<trkpt lat="-39.0185680" lon="175.8089740">
<ele>413.979340</ele>
<time>2013-09-24T23:35:47.003Z</time>
</trkpt>
<trkpt lat="-39.0184750" lon="175.8089470">
<ele>413.979340</ele>
<time>2013-09-24T23:35:55.003Z</time>
</trkpt>
<trkpt lat="-39.0183830" lon="175.8089010">
<ele>413.491669</ele>
<time>2013-09-24T23:36:03.997Z</time>
</trkpt>
<trkpt lat="-39.0183000" lon="175.8088450">
<ele>414.467041</ele>
<time>2013-09-24T23:36:11.998Z</time>
</trkpt>
<trkpt lat="-39.0182610" lon="175.8087430">
<ele>414.467041</ele>
<time>2013-09-24T23:36:19.999Z</time>
</trkpt>
<trkpt lat="-39.0181890" lon="175.8086570">
<ele>413.979340</ele>
<time>2013-09-24T23:36:27.999Z</time>
</trkpt>
<trkpt lat="-39.0180940" lon="175.8086300">
<ele>414.954742</ele>
<time>2013-09-24T23:36:37.002Z</time>
</trkpt>
<trkpt lat="-39.0179860" lon="175.8086260">
<ele>414.954742</ele>
<time>2013-09-24T23:36:48.001Z</time>
</trkpt>
<trkpt lat="-39.0178960" lon="175.8085780">
<ele>414.467041</ele>
<time>2013-09-24T23:37:03.000Z</time>
</trkpt>
<trkpt lat="-39.0177920" lon="175.8085710">
<ele>413.491669</ele>
<time>2013-09-24T23:37:17.999Z</time>
</trkpt>
<trkpt lat="-39.0176940" lon="175.8085540">
<ele>413.491669</ele>
<time>2013-09-24T23:37:27.002Z</time>
</trkpt>
<trkpt lat="-39.0175980" lon="175.8085120">
<ele>413.979340</ele>
<time>2013-09-24T23:37:35.003Z</time>
</trkpt>
<trkpt lat="-39.0174960" lon="175.8084710">
<ele>414.467041</ele>
<time>2013-09-24T23:37:44.999Z</time>
</trkpt>
<trkpt lat="-39.0173950" lon="175.8084630">
<ele>413.979340</ele>
<time>2013-09-24T23:37:53.000Z</time>
</trkpt>
<trkpt lat="-39.0173050" lon="175.8084200">
<ele>414.467041</ele>
<time>2013-09-24T23:38:01.000Z</time>
</trkpt>
<trkpt lat="-39.0171970" lon="175.8083940">
<ele>413.979340</ele>
<time>2013-09-24T23:38:11.999Z</time>
</trkpt>
<trkpt lat="-39.0170940" lon="175.8084090">
<ele>413.979340</ele>
<time>2013-09-24T23:38:21.002Z</time>
</trkpt>
<trkpt lat="-39.0169960" lon="175.8083720">
<ele>413.491669</ele>
<time>2013-09-24T23:38:29.003Z</time>
</trkpt>
<trkpt lat="-39.0169010" lon="175.8083370">
<ele>413.034485</ele>
<time>2013-09-24T23:38:37.003Z</time>
</trkpt>
<trkpt lat="-39.0167950" lon="175.8083240">
<ele>411.571442</ele>
<time>2013-09-24T23:38:45.997Z</time>
</trkpt>
<trkpt lat="-39.0166840" lon="175.8083090">
<ele>411.114258</ele>
<time>2013-09-24T23:38:55.000Z</time>
</trkpt>
<trkpt lat="-39.0165730" lon="175.8082930">
<ele>411.571442</ele>
<time>2013-09-24T23:39:04.003Z</time>
</trkpt>
<trkpt lat="-39.0164710" lon="175.8082420">
<ele>411.571442</ele>
<time>2013-09-24T23:39:12.997Z</time>
</trkpt>
<trkpt lat="-39.0163510" lon="175.8082200">
<ele>411.571442</ele>
<time>2013-09-24T23:39:27.003Z</time>
</trkpt>
<trkpt lat="-39.0162450" lon="175.8081840">
<ele>412.059113</ele>
<time>2013-09-24T23:39:35.997Z</time>
</trkpt>
<trkpt lat="-39.0161340" lon="175.8081650">
<ele>411.114258</ele>
<time>2013-09-24T23:39:45.000Z</time>
</trkpt>
<trkpt lat="-39.0160300" lon="175.8081830">
<ele>410.626556</ele>
<time>2013-09-24T23:39:53.001Z</time>
</trkpt>
<trkpt lat="-39.0159300" lon="175.8081440">
<ele>411.571442</ele>
<time>2013-09-24T23:40:02.004Z</time>
</trkpt>
<trkpt lat="-39.0158280" lon="175.8081130">
<ele>411.571442</ele>
<time>2013-09-24T23:40:10.004Z</time>
</trkpt>
<trkpt lat="-39.0157170" lon="175.8080970">
<ele>410.626556</ele>
<time>2013-09-24T23:40:18.998Z</time>
</trkpt>
<trkpt lat="-39.0156060" lon="175.8080920">
<ele>410.626556</ele>
<time>2013-09-24T23:40:28.001Z</time>
</trkpt>
<trkpt lat="-39.0155050" lon="175.8080930">
<ele>410.626556</ele>
<time>2013-09-24T23:40:37.004Z</time>
</trkpt>
<trkpt lat="-39.0154120" lon="175.8080300">
<ele>410.626556</ele>
<time>2013-09-24T23:40:45.998Z</time>
</trkpt>
<trkpt lat="-39.0153170" lon="175.8080090">
<ele>409.651215</ele>
<time>2013-09-24T23:40:53.999Z</time>
</trkpt>
<trkpt lat="-39.0152150" lon="175.8079880">
<ele>410.138885</ele>
<time>2013-09-24T23:41:02.000Z</time>
</trkpt>
<trkpt lat="-39.0151090" lon="175.8079620">
<ele>409.651215</ele>
<time>2013-09-24T23:41:11.003Z</time>
</trkpt>
<trkpt lat="-39.0150090" lon="175.8079330">
<ele>409.194000</ele>
<time>2013-09-24T23:41:19.003Z</time>
</trkpt>
<trkpt lat="-39.0149080" lon="175.8079170">
<ele>409.194000</ele>
<time>2013-09-24T23:41:27.004Z</time>
</trkpt>
<trkpt lat="-39.0148050" lon="175.8079340">
<ele>409.651215</ele>
<time>2013-09-24T23:41:35.998Z</time>
</trkpt>
<trkpt lat="-39.0146970" lon="175.8078830">
<ele>408.706329</ele>
<time>2013-09-24T23:41:45.001Z</time>
</trkpt>
<trkpt lat="-39.0146020" lon="175.8078510">
<ele>408.706329</ele>
<time>2013-09-24T23:42:06.998Z</time>
</trkpt>
<trkpt lat="-39.0144860" lon="175.8078510">
<ele>408.706329</ele>
<time>2013-09-24T23:42:24.002Z</time>
</trkpt>
<trkpt lat="-39.0143920" lon="175.8079370">
<ele>408.218658</ele>
<time>2013-09-24T23:42:32.996Z</time>
</trkpt>
<trkpt lat="-39.0143000" lon="175.8079640">
<ele>408.706329</ele>
<time>2013-09-24T23:42:41.999Z</time>
</trkpt>
<trkpt lat="-39.0141850" lon="175.8079680">
<ele>408.218658</ele>
<time>2013-09-24T23:42:51.002Z</time>
</trkpt>
<trkpt lat="-39.0140810" lon="175.8079730">
<ele>408.218658</ele>
<time>2013-09-24T23:42:59.996Z</time>
</trkpt>
<trkpt lat="-39.0139930" lon="175.8080380">
<ele>408.706329</ele>
<time>2013-09-24T23:43:08.999Z</time>
</trkpt>
<trkpt lat="-39.0138950" lon="175.8080110">
<ele>408.706329</ele>
<time>2013-09-24T23:43:17.000Z</time>
</trkpt>
<trkpt lat="-39.0137990" lon="175.8079670">
<ele>408.218658</ele>
<time>2013-09-24T23:43:25.000Z</time>
</trkpt>
<trkpt lat="-39.0137020" lon="175.8079260">
<ele>408.706329</ele>
<time>2013-09-24T23:43:33.001Z</time>
</trkpt>
<trkpt lat="-39.0136000" lon="175.8078930">
<ele>409.194000</ele>
<time>2013-09-24T23:43:42.004Z</time>
</trkpt>
<trkpt lat="-39.0135120" lon="175.8078180">
<ele>409.194000</ele>
<time>2013-09-24T23:43:50.998Z</time>
</trkpt>
<trkpt lat="-39.0133980" lon="175.8078030">
<ele>409.194000</ele>
<time>2013-09-24T23:44:01.003Z</time>
</trkpt>
<trkpt lat="-39.0132860" lon="175.8077640">
<ele>408.706329</ele>
<time>2013-09-24T23:44:09.997Z</time>
</trkpt>
<trkpt lat="-39.0131920" lon="175.8077170">
<ele>408.706329</ele>
<time>2013-09-24T23:44:17.998Z</time>
</trkpt>
<trkpt lat="-39.0131360" lon="175.8076100">
<ele>408.706329</ele>
<time>2013-09-24T23:44:27.001Z</time>
</trkpt>
<trkpt lat="-39.0130490" lon="175.8075620">
<ele>408.218658</ele>
<time>2013-09-24T23:44:36.004Z</time>
</trkpt>
<trkpt lat="-39.0129440" lon="175.8075250">
<ele>408.218658</ele>
<time>2013-09-24T23:44:44.998Z</time>
</trkpt>
<trkpt lat="-39.0128260" lon="175.8074960">
<ele>408.706329</ele>
<time>2013-09-24T23:44:54.001Z</time>
</trkpt>
<trkpt lat="-39.0127350" lon="175.8074500">
<ele>408.218658</ele>
<time>2013-09-24T23:45:26.004Z</time>
</trkpt>
<trkpt lat="-39.0126300" lon="175.8074620">
<ele>408.218658</ele>
<time>2013-09-24T23:45:37.002Z</time>
</trkpt>
<trkpt lat="-39.0125350" lon="175.8073990">
<ele>408.706329</ele>
<time>2013-09-24T23:45:45.996Z</time>
</trkpt>
<trkpt lat="-39.0124280" lon="175.8073780">
<ele>408.218658</ele>
<time>2013-09-24T23:45:54.999Z</time>
</trkpt>
<trkpt lat="-39.0123220" lon="175.8073570">
<ele>408.218658</ele>
<time>2013-09-24T23:46:04.002Z</time>
</trkpt>
<trkpt lat="-39.0122210" lon="175.8073350">
<ele>408.218658</ele>
<time>2013-09-24T23:46:12.003Z</time>
</trkpt>
<trkpt lat="-39.0121200" lon="175.8073130">
<ele>408.706329</ele>
<time>2013-09-24T23:46:20.004Z</time>
</trkpt>
<trkpt lat="-39.0120160" lon="175.8072870">
<ele>407.273743</ele>
<time>2013-09-24T23:46:28.004Z</time>
</trkpt>
<trkpt lat="-39.0119130" lon="175.8072860">
<ele>407.273743</ele>
<time>2013-09-24T23:46:35.996Z</time>
</trkpt>
<trkpt lat="-39.0118120" lon="175.8072480">
<ele>407.730957</ele>
<time>2013-09-24T23:46:43.997Z</time>
</trkpt>
<trkpt lat="-39.0117090" lon="175.8072310">
<ele>406.755615</ele>
<time>2013-09-24T23:46:51.997Z</time>
</trkpt>
<trkpt lat="-39.0116070" lon="175.8072230">
<ele>407.730957</ele>
<time>2013-09-24T23:46:59.998Z</time>
</trkpt>
<trkpt lat="-39.0115030" lon="175.8072180">
<ele>407.273743</ele>
<time>2013-09-24T23:47:07.999Z</time>
</trkpt>
<trkpt lat="-39.0114150" lon="175.8071860">
<ele>407.730957</ele>
<time>2013-09-24T23:47:15.999Z</time>
</trkpt>
<trkpt lat="-39.0113230" lon="175.8071550">
<ele>408.218658</ele>
<time>2013-09-24T23:47:25.002Z</time>
</trkpt>
<trkpt lat="-39.0112310" lon="175.8071270">
<ele>407.730957</ele>
<time>2013-09-24T23:47:33.003Z</time>
</trkpt>
<trkpt lat="-39.0111270" lon="175.8071180">
<ele>407.730957</ele>
<time>2013-09-24T23:47:41.997Z</time>
</trkpt>
<trkpt lat="-39.0110330" lon="175.8071320">
<ele>408.218658</ele>
<time>2013-09-24T23:47:51.000Z</time>
</trkpt>
<trkpt lat="-39.0109560" lon="175.8072090">
<ele>407.730957</ele>
<time>2013-09-24T23:48:00.003Z</time>
</trkpt>
<trkpt lat="-39.0109100" lon="175.8073420">
<ele>408.218658</ele>
<time>2013-09-24T23:48:08.997Z</time>
</trkpt>
<trkpt lat="-39.0108900" lon="175.8074630">
<ele>407.273743</ele>
<time>2013-09-24T23:48:16.998Z</time>
</trkpt>
<trkpt lat="-39.0108680" lon="175.8075870">
<ele>407.730957</ele>
<time>2013-09-24T23:48:24.998Z</time>
</trkpt>
<trkpt lat="-39.0108300" lon="175.8077050">
<ele>407.730957</ele>
<time>2013-09-24T23:48:32.999Z</time>
</trkpt>
<trkpt lat="-39.0108070" lon="175.8078300">
<ele>408.218658</ele>
<time>2013-09-24T23:48:41.000Z</time>
</trkpt>
<trkpt lat="-39.0107910" lon="175.8079570">
<ele>408.218658</ele>
<time>2013-09-24T23:48:49.000Z</time>
</trkpt>
<trkpt lat="-39.0107520" lon="175.8080750">
<ele>407.730957</ele>
<time>2013-09-24T23:48:57.001Z</time>
</trkpt>
<trkpt lat="-39.0107340" lon="175.8082060">
<ele>407.730957</ele>
<time>2013-09-24T23:49:05.002Z</time>
</trkpt>
<trkpt lat="-39.0107040" lon="175.8083220">
<ele>407.730957</ele>
<time>2013-09-24T23:49:13.002Z</time>
</trkpt>
<trkpt lat="-39.0106830" lon="175.8084420">
<ele>407.730957</ele>
<time>2013-09-24T23:49:21.003Z</time>
</trkpt>
<trkpt lat="-39.0106420" lon="175.8085620">
<ele>407.730957</ele>
<time>2013-09-24T23:49:29.997Z</time>
</trkpt>
<trkpt lat="-39.0106120" lon="175.8086880">
<ele>408.706329</ele>
<time>2013-09-24T23:49:39.000Z</time>
</trkpt>
<trkpt lat="-39.0105600" lon="175.8087980">
<ele>408.706329</ele>
<time>2013-09-24T23:49:49.999Z</time>
</trkpt>
<trkpt lat="-39.0104740" lon="175.8088670">
<ele>408.706329</ele>
<time>2013-09-24T23:50:04.004Z</time>
</trkpt>
<trkpt lat="-39.0103910" lon="175.8089090">
<ele>408.706329</ele>
<time>2013-09-24T23:50:15.003Z</time>
</trkpt>
<trkpt lat="-39.0103260" lon="175.8090080">
<ele>408.706329</ele>
<time>2013-09-24T23:50:23.004Z</time>
</trkpt>
<trkpt lat="-39.0102670" lon="175.8091070">
<ele>408.706329</ele>
<time>2013-09-24T23:50:31.004Z</time>
</trkpt>
<trkpt lat="-39.0101930" lon="175.8091880">
<ele>408.706329</ele>
<time>2013-09-24T23:50:38.996Z</time>
</trkpt>
<trkpt lat="-39.0101170" lon="175.8092700">
<ele>409.194000</ele>
<time>2013-09-24T23:50:46.997Z</time>
</trkpt>
<trkpt lat="-39.0100420" lon="175.8093590">
<ele>408.706329</ele>
<time>2013-09-24T23:50:54.997Z</time>
</trkpt>
<trkpt lat="-39.0099570" lon="175.8094360">
<ele>409.194000</ele>
<time>2013-09-24T23:51:02.998Z</time>
</trkpt>
<trkpt lat="-39.0098810" lon="175.8095130">
<ele>409.651215</ele>
<time>2013-09-24T23:51:10.999Z</time>
</trkpt>
<trkpt lat="-39.0097880" lon="175.8095720">
<ele>409.194000</ele>
<time>2013-09-24T23:51:20.002Z</time>
</trkpt>
<trkpt lat="-39.0096780" lon="175.8096190">
<ele>409.194000</ele>
<time>2013-09-24T23:51:28.996Z</time>
</trkpt>
<trkpt lat="-39.0095720" lon="175.8096510">
<ele>409.651215</ele>
<time>2013-09-24T23:51:37.999Z</time>
</trkpt>
<trkpt lat="-39.0094520" lon="175.8096770">
<ele>410.138885</ele>
<time>2013-09-24T23:51:47.002Z</time>
</trkpt>
<trkpt lat="-39.0093480" lon="175.8096950">
<ele>410.626556</ele>
<time>2013-09-24T23:51:55.996Z</time>
</trkpt>
<trkpt lat="-39.0092330" lon="175.8096920">
<ele>410.138885</ele>
<time>2013-09-24T23:52:04.999Z</time>
</trkpt>
<trkpt lat="-39.0091300" lon="175.8096700">
<ele>411.114258</ele>
<time>2013-09-24T23:52:12.999Z</time>
</trkpt>
<trkpt lat="-39.0090370" lon="175.8096250">
<ele>410.626556</ele>
<time>2013-09-24T23:52:21.000Z</time>
</trkpt>
<trkpt lat="-39.0089210" lon="175.8096150">
<ele>410.626556</ele>
<time>2013-09-24T23:52:30.003Z</time>
</trkpt>
<trkpt lat="-39.0088210" lon="175.8095940">
<ele>411.571442</ele>
<time>2013-09-24T23:52:38.004Z</time>
</trkpt>
<trkpt lat="-39.0087270" lon="175.8095600">
<ele>411.571442</ele>
<time>2013-09-24T23:52:46.998Z</time>
</trkpt>
<trkpt lat="-39.0086460" lon="175.8096700">
<ele>411.571442</ele>
<time>2013-09-24T23:53:51.003Z</time>
</trkpt>
<trkpt lat="-39.0086150" lon="175.8097360">
<ele>411.571442</ele>
<time>2013-09-24T23:54:14.996Z</time>
</trkpt>
<trkpt lat="-39.0085340" lon="175.8098100">
<ele>412.059113</ele>
<time>2013-09-24T23:54:23.999Z</time>
</trkpt>
<trkpt lat="-39.0084350" lon="175.8098150">
<ele>412.546814</ele>
<time>2013-09-24T23:54:52.001Z</time>
</trkpt>
<trkpt lat="-39.0083210" lon="175.8098040">
<ele>411.114258</ele>
<time>2013-09-24T23:55:01.998Z</time>
</trkpt>
<trkpt lat="-39.0082420" lon="175.8099310">
<ele>412.546814</ele>
<time>2013-09-24T23:55:12.996Z</time>
</trkpt>
<trkpt lat="-39.0081510" lon="175.8100530">
<ele>413.979340</ele>
<time>2013-09-24T23:55:24.004Z</time>
</trkpt>
<trkpt lat="-39.0080510" lon="175.8100910">
<ele>414.467041</ele>
<time>2013-09-24T23:55:32.998Z</time>
</trkpt>
<trkpt lat="-39.0079330" lon="175.8101420">
<ele>414.467041</ele>
<time>2013-09-24T23:55:43.003Z</time>
</trkpt>
<trkpt lat="-39.0078150" lon="175.8101480">
<ele>413.979340</ele>
<time>2013-09-24T23:55:53.000Z</time>
</trkpt>
<trkpt lat="-39.0077000" lon="175.8101890">
<ele>413.979340</ele>
<time>2013-09-24T23:56:02.996Z</time>
</trkpt>
<trkpt lat="-39.0075780" lon="175.8101810">
<ele>413.979340</ele>
<time>2013-09-24T23:56:11.999Z</time>
</trkpt>
<trkpt lat="-39.0074730" lon="175.8102350">
<ele>413.979340</ele>
<time>2013-09-24T23:56:21.002Z</time>
</trkpt>
<trkpt lat="-39.0073530" lon="175.8102740">
<ele>413.979340</ele>
<time>2013-09-24T23:56:30.998Z</time>
</trkpt>
<trkpt lat="-39.0072430" lon="175.8103110">
<ele>413.979340</ele>
<time>2013-09-24T23:56:38.999Z</time>
</trkpt>
<trkpt lat="-39.0071610" lon="175.8104310">
<ele>414.954742</ele>
<time>2013-09-24T23:56:49.004Z</time>
</trkpt>
<trkpt lat="-39.0070920" lon="175.8105520">
<ele>414.467041</ele>
<time>2013-09-24T23:56:57.998Z</time>
</trkpt>
<trkpt lat="-39.0069840" lon="175.8106010">
<ele>414.467041</ele>
<time>2013-09-24T23:57:07.001Z</time>
</trkpt>
<trkpt lat="-39.0068890" lon="175.8105710">
<ele>413.979340</ele>
<time>2013-09-24T23:57:15.002Z</time>
</trkpt>
<trkpt lat="-39.0067880" lon="175.8105940">
<ele>414.467041</ele>
<time>2013-09-24T23:57:23.003Z</time>
</trkpt>
<trkpt lat="-39.0066820" lon="175.8106620">
<ele>414.467041</ele>
<time>2013-09-24T23:57:31.997Z</time>
</trkpt>
<trkpt lat="-39.0065960" lon="175.8106080">
<ele>414.467041</ele>
<time>2013-09-24T23:57:39.997Z</time>
</trkpt>
<trkpt lat="-39.0064880" lon="175.8106430">
<ele>413.491669</ele>
<time>2013-09-24T23:57:49.000Z</time>
</trkpt>
<trkpt lat="-39.0063890" lon="175.8106710">
<ele>412.059113</ele>
<time>2013-09-24T23:57:57.001Z</time>
</trkpt>
<trkpt lat="-39.0062860" lon="175.8106480">
<ele>411.571442</ele>
<time>2013-09-24T23:58:06.004Z</time>
</trkpt>
<trkpt lat="-39.0061930" lon="175.8106080">
<ele>411.114258</ele>
<time>2013-09-24T23:58:13.996Z</time>
</trkpt>
<trkpt lat="-39.0061010" lon="175.8105560">
<ele>411.571442</ele>
<time>2013-09-24T23:58:21.996Z</time>
</trkpt>
<trkpt lat="-39.0060090" lon="175.8104990">
<ele>410.626556</ele>
<time>2013-09-24T23:58:29.997Z</time>
</trkpt>
<trkpt lat="-39.0059260" lon="175.8105320">
<ele>410.138885</ele>
<time>2013-09-24T23:58:37.998Z</time>
</trkpt>
<trkpt lat="-39.0058100" lon="175.8105820">
<ele>409.194000</ele>
<time>2013-09-24T23:58:48.003Z</time>
</trkpt>
<trkpt lat="-39.0057150" lon="175.8106480">
<ele>406.755615</ele>
<time>2013-09-24T23:58:56.997Z</time>
</trkpt>
<trkpt lat="-39.0056280" lon="175.8107410">
<ele>404.835358</ele>
<time>2013-09-24T23:59:06.000Z</time>
</trkpt>
<trkpt lat="-39.0055600" lon="175.8108280">
<ele>403.402802</ele>
<time>2013-09-24T23:59:14.001Z</time>
</trkpt>
<trkpt lat="-39.0055280" lon="175.8109530">
<ele>402.457916</ele>
<time>2013-09-24T23:59:22.001Z</time>
</trkpt>
<trkpt lat="-39.0056160" lon="175.8110310">
<ele>400.537659</ele>
<time>2013-09-24T23:59:30.002Z</time>
</trkpt>
<trkpt lat="-39.0057160" lon="175.8110670">
<ele>398.586945</ele>
<time>2013-09-24T23:59:38.996Z</time>
</trkpt>
<trkpt lat="-39.0058200" lon="175.8110680">
<ele>397.154388</ele>
<time>2013-09-24T23:59:46.997Z</time>
</trkpt>
<trkpt lat="-39.0059100" lon="175.8110080">
<ele>397.642059</ele>
<time>2013-09-24T23:59:54.997Z</time>
</trkpt>
<trkpt lat="-39.0060110" lon="175.8109640">
<ele>398.129730</ele>
<time>2013-09-25T00:00:02.998Z</time>
</trkpt>
<trkpt lat="-39.0061100" lon="175.8109270">
<ele>398.129730</ele>
<time>2013-09-25T00:00:10.999Z</time>
</trkpt>
<trkpt lat="-39.0062080" lon="175.8109020">
<ele>397.154388</ele>
<time>2013-09-25T00:00:18.999Z</time>
</trkpt>
<trkpt lat="-39.0063080" lon="175.8109340">
<ele>397.154388</ele>
<time>2013-09-25T00:00:27.000Z</time>
</trkpt>
<trkpt lat="-39.0064050" lon="175.8109600">
<ele>397.154388</ele>
<time>2013-09-25T00:00:35.001Z</time>
</trkpt>
<trkpt lat="-39.0065080" lon="175.8109790">
<ele>397.154388</ele>
<time>2013-09-25T00:00:43.001Z</time>
</trkpt>
<trkpt lat="-39.0066060" lon="175.8109890">
<ele>396.209534</ele>
<time>2013-09-25T00:00:51.002Z</time>
</trkpt>
<trkpt lat="-39.0066990" lon="175.8110230">
<ele>395.234131</ele>
<time>2013-09-25T00:00:59.996Z</time>
</trkpt>
<trkpt lat="-39.0067790" lon="175.8110860">
<ele>393.313934</ele>
<time>2013-09-25T00:01:07.997Z</time>
</trkpt>
<trkpt lat="-39.0067290" lon="175.8111770">
<ele>393.313934</ele>
<time>2013-09-25T00:01:18.002Z</time>
</trkpt>
<trkpt lat="-39.0066230" lon="175.8112590">
<ele>393.313934</ele>
<time>2013-09-25T00:01:26.996Z</time>
</trkpt>
<trkpt lat="-39.0065300" lon="175.8113110">
<ele>393.313934</ele>
<time>2013-09-25T00:01:39.999Z</time>
</trkpt>
<trkpt lat="-39.0064330" lon="175.8113590">
<ele>392.826263</ele>
<time>2013-09-25T00:01:48.000Z</time>
</trkpt>
<trkpt lat="-39.0063480" lon="175.8114330">
<ele>392.826263</ele>
<time>2013-09-25T00:01:56.001Z</time>
</trkpt>
<trkpt lat="-39.0062400" lon="175.8114720">
<ele>392.826263</ele>
<time>2013-09-25T00:02:05.997Z</time>
</trkpt>
<trkpt lat="-39.0061530" lon="175.8115470">
<ele>392.826263</ele>
<time>2013-09-25T00:02:16.002Z</time>
</trkpt>
<trkpt lat="-39.0060930" lon="175.8116550">
<ele>392.826263</ele>
<time>2013-09-25T00:02:24.996Z</time>
</trkpt>
<trkpt lat="-39.0060070" lon="175.8117520">
<ele>392.826263</ele>
<time>2013-09-25T00:02:33.999Z</time>
</trkpt>
<trkpt lat="-39.0058940" lon="175.8117920">
<ele>392.369049</ele>
<time>2013-09-25T00:02:43.996Z</time>
</trkpt>
<trkpt lat="-39.0057690" lon="175.8118060">
<ele>392.826263</ele>
<time>2013-09-25T00:02:54.001Z</time>
</trkpt>
<trkpt lat="-39.0056460" lon="175.8118540">
<ele>392.369049</ele>
<time>2013-09-25T00:03:03.004Z</time>
</trkpt>
<trkpt lat="-39.0055310" lon="175.8118780">
<ele>392.369049</ele>
<time>2013-09-25T00:03:11.998Z</time>
</trkpt>
<trkpt lat="-39.0054290" lon="175.8119190">
<ele>392.369049</ele>
<time>2013-09-25T00:03:21.001Z</time>
</trkpt>
<trkpt lat="-39.0053060" lon="175.8119550">
<ele>391.881348</ele>
<time>2013-09-25T00:03:33.002Z</time>
</trkpt>
<trkpt lat="-39.0051820" lon="175.8120230">
<ele>392.369049</ele>
<time>2013-09-25T00:03:42.998Z</time>
</trkpt>
<trkpt lat="-39.0050630" lon="175.8121100">
<ele>391.881348</ele>
<time>2013-09-25T00:03:52.001Z</time>
</trkpt>
<trkpt lat="-39.0049930" lon="175.8122100">
<ele>392.826263</ele>
<time>2013-09-25T00:04:01.004Z</time>
</trkpt>
<trkpt lat="-39.0048910" lon="175.8123370">
<ele>392.369049</ele>
<time>2013-09-25T00:04:11.001Z</time>
</trkpt>
<trkpt lat="-39.0047990" lon="175.8124590">
<ele>392.369049</ele>
<time>2013-09-25T00:04:20.004Z</time>
</trkpt>
<trkpt lat="-39.0047110" lon="175.8125370">
<ele>391.393677</ele>
<time>2013-09-25T00:04:28.004Z</time>
</trkpt>
<trkpt lat="-39.0046030" lon="175.8125900">
<ele>391.881348</ele>
<time>2013-09-25T00:04:35.996Z</time>
</trkpt>
<trkpt lat="-39.0045040" lon="175.8126460">
<ele>391.881348</ele>
<time>2013-09-25T00:04:43.997Z</time>
</trkpt>
<trkpt lat="-39.0044020" lon="175.8126650">
<ele>392.369049</ele>
<time>2013-09-25T00:04:51.997Z</time>
</trkpt>
<trkpt lat="-39.0042810" lon="175.8127010">
<ele>391.393677</ele>
<time>2013-09-25T00:05:03.998Z</time>
</trkpt>
<trkpt lat="-39.0041500" lon="175.8127540">
<ele>391.393677</ele>
<time>2013-09-25T00:05:13.001Z</time>
</trkpt>
<trkpt lat="-39.0040360" lon="175.8127720">
<ele>391.393677</ele>
<time>2013-09-25T00:05:22.004Z</time>
</trkpt>
<trkpt lat="-39.0039430" lon="175.8127250">
<ele>391.393677</ele>
<time>2013-09-25T00:05:29.996Z</time>
</trkpt>
<trkpt lat="-39.0038430" lon="175.8126790">
<ele>391.393677</ele>
<time>2013-09-25T00:05:37.997Z</time>
</trkpt>
<trkpt lat="-39.0037230" lon="175.8126580">
<ele>390.906006</ele>
<time>2013-09-25T00:05:47.000Z</time>
</trkpt>
<trkpt lat="-39.0036150" lon="175.8126300">
<ele>390.418335</ele>
<time>2013-09-25T00:05:56.996Z</time>
</trkpt>
<trkpt lat="-39.0035050" lon="175.8126160">
<ele>390.418335</ele>
<time>2013-09-25T00:06:04.997Z</time>
</trkpt>
<trkpt lat="-39.0034000" lon="175.8125760">
<ele>390.906006</ele>
<time>2013-09-25T00:06:14.000Z</time>
</trkpt>
<trkpt lat="-39.0032910" lon="175.8125640">
<ele>390.418335</ele>
<time>2013-09-25T00:06:23.003Z</time>
</trkpt>
<trkpt lat="-39.0031720" lon="175.8125370">
<ele>390.906006</ele>
<time>2013-09-25T00:06:32.999Z</time>
</trkpt>
<trkpt lat="-39.0030530" lon="175.8124960">
<ele>390.906006</ele>
<time>2013-09-25T00:06:42.002Z</time>
</trkpt>
<trkpt lat="-39.0029350" lon="175.8125280">
<ele>390.906006</ele>
<time>2013-09-25T00:06:50.996Z</time>
</trkpt>
<trkpt lat="-39.0028940" lon="175.8126270">
<ele>391.393677</ele>
<time>2013-09-25T00:07:01.001Z</time>
</trkpt>
<trkpt lat="-39.0028290" lon="175.8127070">
<ele>390.906006</ele>
<time>2013-09-25T00:07:10.004Z</time>
</trkpt>
<trkpt lat="-39.0027600" lon="175.8128010">
<ele>389.961121</ele>
<time>2013-09-25T00:07:18.998Z</time>
</trkpt>
<trkpt lat="-39.0026610" lon="175.8128130">
<ele>389.473450</ele>
<time>2013-09-25T00:07:25.997Z</time>
</trkpt>
<trkpt lat="-39.0025550" lon="175.8128080">
<ele>389.473450</ele>
<time>2013-09-25T00:07:33.997Z</time>
</trkpt>
<trkpt lat="-39.0024850" lon="175.8127270">
<ele>390.418335</ele>
<time>2013-09-25T00:07:41.998Z</time>
</trkpt>
<trkpt lat="-39.0024050" lon="175.8126640">
<ele>390.906006</ele>
<time>2013-09-25T00:07:49.999Z</time>
</trkpt>
<trkpt lat="-39.0023230" lon="175.8126150">
<ele>392.826263</ele>
<time>2013-09-25T00:08:35.998Z</time>
</trkpt>
<trkpt lat="-39.0022360" lon="175.8126300">
<ele>392.369049</ele>
<time>2013-09-25T00:08:42.996Z</time>
</trkpt>
<trkpt lat="-39.0021490" lon="175.8126350">
<ele>392.369049</ele>
<time>2013-09-25T00:08:50.004Z</time>
</trkpt>
<trkpt lat="-39.0020560" lon="175.8126330">
<ele>392.369049</ele>
<time>2013-09-25T00:08:57.002Z</time>
</trkpt>
<trkpt lat="-39.0019560" lon="175.8126100">
<ele>393.313934</ele>
<time>2013-09-25T00:09:05.996Z</time>
</trkpt>
<trkpt lat="-39.0018620" lon="175.8125780">
<ele>393.313934</ele>
<time>2013-09-25T00:09:13.003Z</time>
</trkpt>
<trkpt lat="-39.0017730" lon="175.8125370">
<ele>392.369049</ele>
<time>2013-09-25T00:09:20.002Z</time>
</trkpt>
<trkpt lat="-39.0016870" lon="175.8124910">
<ele>392.369049</ele>
<time>2013-09-25T00:09:27.000Z</time>
</trkpt>
<trkpt lat="-39.0016030" lon="175.8124450">
<ele>392.369049</ele>
<time>2013-09-25T00:09:33.998Z</time>
</trkpt>
<trkpt lat="-39.0015090" lon="175.8124050">
<ele>391.881348</ele>
<time>2013-09-25T00:09:40.997Z</time>
</trkpt>
<trkpt lat="-39.0014060" lon="175.8123600">
<ele>391.881348</ele>
<time>2013-09-25T00:09:48.997Z</time>
</trkpt>
<trkpt lat="-39.0013130" lon="175.8123170">
<ele>391.881348</ele>
<time>2013-09-25T00:09:55.996Z</time>
</trkpt>
<trkpt lat="-39.0012240" lon="175.8122740">
<ele>391.881348</ele>
<time>2013-09-25T00:10:03.003Z</time>
</trkpt>
<trkpt lat="-39.0011210" lon="175.8122340">
<ele>392.369049</ele>
<time>2013-09-25T00:10:11.004Z</time>
</trkpt>
<trkpt lat="-39.0010310" lon="175.8121950">
<ele>391.881348</ele>
<time>2013-09-25T00:10:18.002Z</time>
</trkpt>
<trkpt lat="-39.0009390" lon="175.8121540">
<ele>391.881348</ele>
<time>2013-09-25T00:10:25.000Z</time>
</trkpt>
<trkpt lat="-39.0008460" lon="175.8121200">
<ele>391.881348</ele>
<time>2013-09-25T00:10:31.999Z</time>
</trkpt>
<trkpt lat="-39.0007490" lon="175.8120940">
<ele>391.881348</ele>
<time>2013-09-25T00:10:38.997Z</time>
</trkpt>
<trkpt lat="-39.0006520" lon="175.8120720">
<ele>391.881348</ele>
<time>2013-09-25T00:10:46.004Z</time>
</trkpt>
<trkpt lat="-39.0005550" lon="175.8120680">
<ele>391.881348</ele>
<time>2013-09-25T00:10:53.003Z</time>
</trkpt>
<trkpt lat="-39.0004440" lon="175.8120680">
<ele>391.393677</ele>
<time>2013-09-25T00:11:01.003Z</time>
</trkpt>
<trkpt lat="-39.0003350" lon="175.8120620">
<ele>391.393677</ele>
<time>2013-09-25T00:11:09.004Z</time>
</trkpt>
<trkpt lat="-39.0002300" lon="175.8120690">
<ele>391.881348</ele>
<time>2013-09-25T00:11:16.996Z</time>
</trkpt>
<trkpt lat="-39.0001360" lon="175.8121050">
<ele>391.393677</ele>
<time>2013-09-25T00:11:24.003Z</time>
</trkpt>
<trkpt lat="-39.0000480" lon="175.8121520">
<ele>391.881348</ele>
<time>2013-09-25T00:11:31.001Z</time>
</trkpt>
<trkpt lat="-38.9999640" lon="175.8122030">
<ele>391.881348</ele>
<time>2013-09-25T00:11:38.000Z</time>
</trkpt>
<trkpt lat="-38.9998760" lon="175.8122680">
<ele>392.369049</ele>
<time>2013-09-25T00:11:46.000Z</time>
</trkpt>
<trkpt lat="-38.9997890" lon="175.8123360">
<ele>392.369049</ele>
<time>2013-09-25T00:11:54.001Z</time>
</trkpt>
<trkpt lat="-38.9997170" lon="175.8124020">
<ele>391.393677</ele>
<time>2013-09-25T00:12:00.999Z</time>
</trkpt>
<trkpt lat="-38.9996280" lon="175.8124630">
<ele>391.881348</ele>
<time>2013-09-25T00:12:09.000Z</time>
</trkpt>
<trkpt lat="-38.9995470" lon="175.8125180">
<ele>391.881348</ele>
<time>2013-09-25T00:12:15.998Z</time>
</trkpt>
<trkpt lat="-38.9994610" lon="175.8125890">
<ele>391.881348</ele>
<time>2013-09-25T00:12:23.999Z</time>
</trkpt>
<trkpt lat="-38.9994050" lon="175.8126830">
<ele>390.906006</ele>
<time>2013-09-25T00:12:32.000Z</time>
</trkpt>
<trkpt lat="-38.9993290" lon="175.8127410">
<ele>389.961121</ele>
<time>2013-09-25T00:12:40.000Z</time>
</trkpt>
<trkpt lat="-38.9992210" lon="175.8127340">
<ele>389.961121</ele>
<time>2013-09-25T00:12:49.997Z</time>
</trkpt>
<trkpt lat="-38.9990920" lon="175.8127200">
<ele>390.906006</ele>
<time>2013-09-25T00:13:04.002Z</time>
</trkpt>
<trkpt lat="-38.9990010" lon="175.8127050">
<ele>390.418335</ele>
<time>2013-09-25T00:13:17.999Z</time>
</trkpt>
<trkpt lat="-38.9988900" lon="175.8127160">
<ele>389.473450</ele>
<time>2013-09-25T00:13:43.003Z</time>
</trkpt>
<trkpt lat="-38.9987880" lon="175.8126820">
<ele>390.418335</ele>
<time>2013-09-25T00:14:05.001Z</time>
</trkpt>
<trkpt lat="-38.9986830" lon="175.8126660">
<ele>389.961121</ele>
<time>2013-09-25T00:14:13.001Z</time>
</trkpt>
<trkpt lat="-38.9985890" lon="175.8126480">
<ele>389.473450</ele>
<time>2013-09-25T00:14:20.000Z</time>
</trkpt>
<trkpt lat="-38.9984830" lon="175.8126360">
<ele>390.418335</ele>
<time>2013-09-25T00:14:28.000Z</time>
</trkpt>
<trkpt lat="-38.9983900" lon="175.8126110">
<ele>389.961121</ele>
<time>2013-09-25T00:14:34.999Z</time>
</trkpt>
<trkpt lat="-38.9982980" lon="175.8125790">
<ele>389.473450</ele>
<time>2013-09-25T00:14:41.997Z</time>
</trkpt>
<trkpt lat="-38.9982000" lon="175.8125540">
<ele>389.961121</ele>
<time>2013-09-25T00:14:49.004Z</time>
</trkpt>
<trkpt lat="-38.9981010" lon="175.8125320">
<ele>389.961121</ele>
<time>2013-09-25T00:14:56.003Z</time>
</trkpt>
<trkpt lat="-38.9980040" lon="175.8125110">
<ele>389.473450</ele>
<time>2013-09-25T00:15:03.001Z</time>
</trkpt>
<trkpt lat="-38.9979040" lon="175.8124960">
<ele>389.473450</ele>
<time>2013-09-25T00:15:11.002Z</time>
</trkpt>
<trkpt lat="-38.9978010" lon="175.8124910">
<ele>389.473450</ele>
<time>2013-09-25T00:15:19.002Z</time>
</trkpt>
<trkpt lat="-38.9976940" lon="175.8124750">
<ele>388.498077</ele>
<time>2013-09-25T00:15:27.996Z</time>
</trkpt>
<trkpt lat="-38.9975800" lon="175.8124490">
<ele>388.498077</ele>
<time>2013-09-25T00:15:36.999Z</time>
</trkpt>
<trkpt lat="-38.9974850" lon="175.8124220">
<ele>388.040863</ele>
<time>2013-09-25T00:15:43.998Z</time>
</trkpt>
<trkpt lat="-38.9973830" lon="175.8124020">
<ele>388.040863</ele>
<time>2013-09-25T00:15:53.001Z</time>
</trkpt>
<trkpt lat="-38.9972710" lon="175.8124080">
<ele>388.040863</ele>
<time>2013-09-25T00:16:05.002Z</time>
</trkpt>
<trkpt lat="-38.9971420" lon="175.8124210">
<ele>387.553192</ele>
<time>2013-09-25T00:16:13.996Z</time>
</trkpt>
<trkpt lat="-38.9970280" lon="175.8124510">
<ele>388.498077</ele>
<time>2013-09-25T00:16:21.996Z</time>
</trkpt>
<trkpt lat="-38.9969310" lon="175.8124770">
<ele>388.040863</ele>
<time>2013-09-25T00:16:30.999Z</time>
</trkpt>
<trkpt lat="-38.9968080" lon="175.8124480">
<ele>388.985748</ele>
<time>2013-09-25T00:16:40.002Z</time>
</trkpt>
<trkpt lat="-38.9966980" lon="175.8124620">
<ele>388.040863</ele>
<time>2013-09-25T00:16:48.996Z</time>
</trkpt>
<trkpt lat="-38.9965880" lon="175.8124820">
<ele>388.040863</ele>
<time>2013-09-25T00:16:57.999Z</time>
</trkpt>
<trkpt lat="-38.9964850" lon="175.8125270">
<ele>388.498077</ele>
<time>2013-09-25T00:17:06.000Z</time>
</trkpt>
<trkpt lat="-38.9964000" lon="175.8125770">
<ele>388.985748</ele>
<time>2013-09-25T00:17:12.998Z</time>
</trkpt>
<trkpt lat="-38.9963030" lon="175.8126100">
<ele>388.985748</ele>
<time>2013-09-25T00:17:20.999Z</time>
</trkpt>
<trkpt lat="-38.9961940" lon="175.8125950">
<ele>388.985748</ele>
<time>2013-09-25T00:17:29.000Z</time>
</trkpt>
<trkpt lat="-38.9961260" lon="175.8126200">
<ele>388.498077</ele>
<time>2013-09-25T00:17:38.003Z</time>
</trkpt>
<trkpt lat="-38.9960500" lon="175.8126870">
<ele>387.553192</ele>
<time>2013-09-25T00:17:45.001Z</time>
</trkpt>
<trkpt lat="-38.9959700" lon="175.8127400">
<ele>387.553192</ele>
<time>2013-09-25T00:17:51.999Z</time>
</trkpt>
<trkpt lat="-38.9958890" lon="175.8128010">
<ele>387.553192</ele>
<time>2013-09-25T00:17:58.998Z</time>
</trkpt>
<trkpt lat="-38.9958040" lon="175.8128490">
<ele>387.553192</ele>
<time>2013-09-25T00:18:05.996Z</time>
</trkpt>
<trkpt lat="-38.9957110" lon="175.8128930">
<ele>388.040863</ele>
<time>2013-09-25T00:18:13.003Z</time>
</trkpt>
<trkpt lat="-38.9956330" lon="175.8129540">
<ele>387.553192</ele>
<time>2013-09-25T00:18:20.002Z</time>
</trkpt>
<trkpt lat="-38.9955520" lon="175.8130040">
<ele>388.040863</ele>
<time>2013-09-25T00:18:27.000Z</time>
</trkpt>
<trkpt lat="-38.9954680" lon="175.8130600">
<ele>387.553192</ele>
<time>2013-09-25T00:18:33.998Z</time>
</trkpt>
<trkpt lat="-38.9953840" lon="175.8131240">
<ele>387.553192</ele>
<time>2013-09-25T00:18:40.997Z</time>
</trkpt>
<trkpt lat="-38.9953020" lon="175.8131830">
<ele>387.553192</ele>
<time>2013-09-25T00:18:48.004Z</time>
</trkpt>
<trkpt lat="-38.9952180" lon="175.8132610">
<ele>387.553192</ele>
<time>2013-09-25T00:18:55.996Z</time>
</trkpt>
<trkpt lat="-38.9951520" lon="175.8133460">
<ele>387.065521</ele>
<time>2013-09-25T00:19:03.003Z</time>
</trkpt>
<trkpt lat="-38.9950810" lon="175.8134250">
<ele>387.065521</ele>
<time>2013-09-25T00:19:10.001Z</time>
</trkpt>
<trkpt lat="-38.9950140" lon="175.8135030">
<ele>387.065521</ele>
<time>2013-09-25T00:19:17.000Z</time>
</trkpt>
<trkpt lat="-38.9949670" lon="175.8136050">
<ele>386.120667</ele>
<time>2013-09-25T00:19:23.998Z</time>
</trkpt>
<trkpt lat="-38.9949410" lon="175.8137300">
<ele>385.632935</ele>
<time>2013-09-25T00:19:31.999Z</time>
</trkpt>
<trkpt lat="-38.9948670" lon="175.8138250">
<ele>387.065521</ele>
<time>2013-09-25T00:19:52.000Z</time>
</trkpt>
<trkpt lat="-38.9947850" lon="175.8138850">
<ele>386.577850</ele>
<time>2013-09-25T00:20:00.001Z</time>
</trkpt>
<trkpt lat="-38.9946980" lon="175.8139570">
<ele>387.065521</ele>
<time>2013-09-25T00:20:08.002Z</time>
</trkpt>
<trkpt lat="-38.9946330" lon="175.8140360">
<ele>387.553192</ele>
<time>2013-09-25T00:20:16.996Z</time>
</trkpt>
<trkpt lat="-38.9945970" lon="175.8141490">
<ele>388.040863</ele>
<time>2013-09-25T00:20:36.004Z</time>
</trkpt>
<trkpt lat="-38.9945280" lon="175.8142370">
<ele>387.065521</ele>
<time>2013-09-25T00:20:43.996Z</time>
</trkpt>
<trkpt lat="-38.9944740" lon="175.8143200">
<ele>386.577850</ele>
<time>2013-09-25T00:20:54.001Z</time>
</trkpt>
<trkpt lat="-38.9943850" lon="175.8143970">
<ele>386.120667</ele>
<time>2013-09-25T00:21:02.002Z</time>
</trkpt>
<trkpt lat="-38.9943140" lon="175.8145030">
<ele>386.577850</ele>
<time>2013-09-25T00:21:10.002Z</time>
</trkpt>
<trkpt lat="-38.9942220" lon="175.8145690">
<ele>386.577850</ele>
<time>2013-09-25T00:21:18.003Z</time>
</trkpt>
<trkpt lat="-38.9941420" lon="175.8146390">
<ele>385.632935</ele>
<time>2013-09-25T00:21:26.004Z</time>
</trkpt>
<trkpt lat="-38.9940560" lon="175.8147100">
<ele>386.120667</ele>
<time>2013-09-25T00:21:34.998Z</time>
</trkpt>
<trkpt lat="-38.9939910" lon="175.8148390">
<ele>385.145264</ele>
<time>2013-09-25T00:21:45.003Z</time>
</trkpt>
<trkpt lat="-38.9938930" lon="175.8149600">
<ele>384.657593</ele>
<time>2013-09-25T00:21:54.999Z</time>
</trkpt>
<trkpt lat="-38.9938200" lon="175.8150940">
<ele>384.657593</ele>
<time>2013-09-25T00:22:05.998Z</time>
</trkpt>
<trkpt lat="-38.9937190" lon="175.8152170">
<ele>384.169922</ele>
<time>2013-09-25T00:22:17.999Z</time>
</trkpt>
<trkpt lat="-38.9936140" lon="175.8153470">
<ele>384.657593</ele>
<time>2013-09-25T00:22:27.002Z</time>
</trkpt>
<trkpt lat="-38.9935310" lon="175.8154540">
<ele>384.657593</ele>
<time>2013-09-25T00:22:35.003Z</time>
</trkpt>
<trkpt lat="-38.9934440" lon="175.8155550">
<ele>384.169922</ele>
<time>2013-09-25T00:22:43.003Z</time>
</trkpt>
<trkpt lat="-38.9933670" lon="175.8156430">
<ele>384.657593</ele>
<time>2013-09-25T00:22:51.004Z</time>
</trkpt>
<trkpt lat="-38.9932930" lon="175.8157280">
<ele>384.169922</ele>
<time>2013-09-25T00:22:58.996Z</time>
</trkpt>
<trkpt lat="-38.9932290" lon="175.8158170">
<ele>384.169922</ele>
<time>2013-09-25T00:23:09.001Z</time>
</trkpt>
<trkpt lat="-38.9932250" lon="175.8159300">
<ele>384.657593</ele>
<time>2013-09-25T00:23:18.004Z</time>
</trkpt>
<trkpt lat="-38.9931630" lon="175.8160650">
<ele>384.657593</ele>
<time>2013-09-25T00:23:26.998Z</time>
</trkpt>
<trkpt lat="-38.9930880" lon="175.8161680">
<ele>384.657593</ele>
<time>2013-09-25T00:23:34.999Z</time>
</trkpt>
<trkpt lat="-38.9930170" lon="175.8162520">
<ele>385.145264</ele>
<time>2013-09-25T00:23:41.997Z</time>
</trkpt>
<trkpt lat="-38.9929520" lon="175.8163320">
<ele>384.657593</ele>
<time>2013-09-25T00:23:49.004Z</time>
</trkpt>
<trkpt lat="-38.9928680" lon="175.8164130">
<ele>384.657593</ele>
<time>2013-09-25T00:23:56.996Z</time>
</trkpt>
<trkpt lat="-38.9927830" lon="175.8164780">
<ele>384.657593</ele>
<time>2013-09-25T00:24:04.997Z</time>
</trkpt>
<trkpt lat="-38.9926900" lon="175.8165340">
<ele>384.657593</ele>
<time>2013-09-25T00:24:12.997Z</time>
</trkpt>
<trkpt lat="-38.9925940" lon="175.8165710">
<ele>384.169922</ele>
<time>2013-09-25T00:24:20.998Z</time>
</trkpt>
<trkpt lat="-38.9925220" lon="175.8166290">
<ele>385.145264</ele>
<time>2013-09-25T00:24:28.999Z</time>
</trkpt>
<trkpt lat="-38.9924340" lon="175.8166940">
<ele>384.657593</ele>
<time>2013-09-25T00:24:36.999Z</time>
</trkpt>
<trkpt lat="-38.9923500" lon="175.8167640">
<ele>384.169922</ele>
<time>2013-09-25T00:24:45.000Z</time>
</trkpt>
<trkpt lat="-38.9922530" lon="175.8168270">
<ele>384.169922</ele>
<time>2013-09-25T00:24:54.003Z</time>
</trkpt>
<trkpt lat="-38.9921300" lon="175.8168790">
<ele>383.712738</ele>
<time>2013-09-25T00:25:03.999Z</time>
</trkpt>
<trkpt lat="-38.9920310" lon="175.8169500">
<ele>384.169922</ele>
<time>2013-09-25T00:25:12.000Z</time>
</trkpt>
<trkpt lat="-38.9919630" lon="175.8170460">
<ele>383.225067</ele>
<time>2013-09-25T00:25:20.001Z</time>
</trkpt>
<trkpt lat="-38.9919140" lon="175.8171500">
<ele>382.737335</ele>
<time>2013-09-25T00:25:28.001Z</time>
</trkpt>
<trkpt lat="-38.9918580" lon="175.8172670">
<ele>382.737335</ele>
<time>2013-09-25T00:25:36.002Z</time>
</trkpt>
<trkpt lat="-38.9918120" lon="175.8173940">
<ele>382.249664</ele>
<time>2013-09-25T00:25:44.003Z</time>
</trkpt>
<trkpt lat="-38.9917780" lon="175.8175210">
<ele>382.737335</ele>
<time>2013-09-25T00:25:52.003Z</time>
</trkpt>
<trkpt lat="-38.9917590" lon="175.8176580">
<ele>382.249664</ele>
<time>2013-09-25T00:26:00.004Z</time>
</trkpt>
<trkpt lat="-38.9917090" lon="175.8177830">
<ele>382.249664</ele>
<time>2013-09-25T00:26:07.996Z</time>
</trkpt>
<trkpt lat="-38.9916490" lon="175.8178890">
<ele>382.249664</ele>
<time>2013-09-25T00:26:15.996Z</time>
</trkpt>
<trkpt lat="-38.9915950" lon="175.8179900">
<ele>382.249664</ele>
<time>2013-09-25T00:26:23.004Z</time>
</trkpt>
<trkpt lat="-38.9915300" lon="175.8180790">
<ele>382.249664</ele>
<time>2013-09-25T00:26:30.002Z</time>
</trkpt>
<trkpt lat="-38.9914600" lon="175.8181560">
<ele>381.792480</ele>
<time>2013-09-25T00:26:37.000Z</time>
</trkpt>
<trkpt lat="-38.9913670" lon="175.8181880">
<ele>381.304810</ele>
<time>2013-09-25T00:26:45.001Z</time>
</trkpt>
<trkpt lat="-38.9912710" lon="175.8182090">
<ele>380.817139</ele>
<time>2013-09-25T00:26:53.002Z</time>
</trkpt>
<trkpt lat="-38.9911730" lon="175.8182430">
<ele>381.792480</ele>
<time>2013-09-25T00:27:01.002Z</time>
</trkpt>
<trkpt lat="-38.9910760" lon="175.8182830">
<ele>383.712738</ele>
<time>2013-09-25T00:27:10.999Z</time>
</trkpt>
<trkpt lat="-38.9909820" lon="175.8183190">
<ele>382.737335</ele>
<time>2013-09-25T00:27:18.999Z</time>
</trkpt>
<trkpt lat="-38.9908810" lon="175.8183300">
<ele>382.737335</ele>
<time>2013-09-25T00:27:27.000Z</time>
</trkpt>
<trkpt lat="-38.9907780" lon="175.8183380">
<ele>382.737335</ele>
<time>2013-09-25T00:27:35.001Z</time>
</trkpt>
<trkpt lat="-38.9906740" lon="175.8183570">
<ele>383.225067</ele>
<time>2013-09-25T00:27:43.001Z</time>
</trkpt>
<trkpt lat="-38.9905740" lon="175.8183690">
<ele>383.225067</ele>
<time>2013-09-25T00:27:51.002Z</time>
</trkpt>
<trkpt lat="-38.9904710" lon="175.8183790">
<ele>382.737335</ele>
<time>2013-09-25T00:27:59.003Z</time>
</trkpt>
<trkpt lat="-38.9903730" lon="175.8183840">
<ele>382.249664</ele>
<time>2013-09-25T00:28:06.001Z</time>
</trkpt>
<trkpt lat="-38.9902700" lon="175.8183880">
<ele>382.249664</ele>
<time>2013-09-25T00:28:14.002Z</time>
</trkpt>
<trkpt lat="-38.9901670" lon="175.8183920">
<ele>382.249664</ele>
<time>2013-09-25T00:28:22.002Z</time>
</trkpt>
<trkpt lat="-38.9900640" lon="175.8184000">
<ele>382.737335</ele>
<time>2013-09-25T00:28:30.003Z</time>
</trkpt>
<trkpt lat="-38.9899520" lon="175.8184270">
<ele>381.792480</ele>
<time>2013-09-25T00:28:38.004Z</time>
</trkpt>
<trkpt lat="-38.9898570" lon="175.8184650">
<ele>382.249664</ele>
<time>2013-09-25T00:28:46.004Z</time>
</trkpt>
<trkpt lat="-38.9897530" lon="175.8184930">
<ele>381.792480</ele>
<time>2013-09-25T00:28:53.996Z</time>
</trkpt>
<trkpt lat="-38.9896470" lon="175.8185170">
<ele>382.737335</ele>
<time>2013-09-25T00:29:01.997Z</time>
</trkpt>
<trkpt lat="-38.9895490" lon="175.8185490">
<ele>382.249664</ele>
<time>2013-09-25T00:29:09.004Z</time>
</trkpt>
<trkpt lat="-38.9894570" lon="175.8185750">
<ele>381.792480</ele>
<time>2013-09-25T00:29:16.002Z</time>
</trkpt>
<trkpt lat="-38.9893730" lon="175.8186190">
<ele>381.792480</ele>
<time>2013-09-25T00:29:23.001Z</time>
</trkpt>
<trkpt lat="-38.9892720" lon="175.8186420">
<ele>382.249664</ele>
<time>2013-09-25T00:29:31.001Z</time>
</trkpt>
<trkpt lat="-38.9891850" lon="175.8186730">
<ele>381.304810</ele>
<time>2013-09-25T00:29:38.000Z</time>
</trkpt>
<trkpt lat="-38.9890780" lon="175.8186920">
<ele>381.304810</ele>
<time>2013-09-25T00:29:46.000Z</time>
</trkpt>
<trkpt lat="-38.9889830" lon="175.8186860">
<ele>381.304810</ele>
<time>2013-09-25T00:29:52.999Z</time>
</trkpt>
<trkpt lat="-38.9888790" lon="175.8186710">
<ele>381.792480</ele>
<time>2013-09-25T00:30:00.999Z</time>
</trkpt>
<trkpt lat="-38.9887770" lon="175.8186580">
<ele>381.304810</ele>
<time>2013-09-25T00:30:09.000Z</time>
</trkpt>
<trkpt lat="-38.9886720" lon="175.8186250">
<ele>381.304810</ele>
<time>2013-09-25T00:30:18.003Z</time>
</trkpt>
<trkpt lat="-38.9885690" lon="175.8185960">
<ele>380.817139</ele>
<time>2013-09-25T00:30:26.004Z</time>
</trkpt>
<trkpt lat="-38.9884640" lon="175.8185680">
<ele>381.304810</ele>
<time>2013-09-25T00:30:34.004Z</time>
</trkpt>
<trkpt lat="-38.9883640" lon="175.8185440">
<ele>380.329468</ele>
<time>2013-09-25T00:30:41.996Z</time>
</trkpt>
<trkpt lat="-38.9882650" lon="175.8185130">
<ele>379.872253</ele>
<time>2013-09-25T00:30:49.997Z</time>
</trkpt>
<trkpt lat="-38.9881550" lon="175.8184960">
<ele>379.872253</ele>
<time>2013-09-25T00:30:57.997Z</time>
</trkpt>
<trkpt lat="-38.9880560" lon="175.8184770">
<ele>380.329468</ele>
<time>2013-09-25T00:31:05.998Z</time>
</trkpt>
<trkpt lat="-38.9879540" lon="175.8184860">
<ele>379.872253</ele>
<time>2013-09-25T00:31:13.999Z</time>
</trkpt>
<trkpt lat="-38.9878540" lon="175.8184940">
<ele>380.329468</ele>
<time>2013-09-25T00:31:21.999Z</time>
</trkpt>
<trkpt lat="-38.9877520" lon="175.8185150">
<ele>379.872253</ele>
<time>2013-09-25T00:31:30.000Z</time>
</trkpt>
<trkpt lat="-38.9876490" lon="175.8185300">
<ele>379.872253</ele>
<time>2013-09-25T00:31:38.001Z</time>
</trkpt>
<trkpt lat="-38.9875460" lon="175.8185490">
<ele>379.384552</ele>
<time>2013-09-25T00:31:46.001Z</time>
</trkpt>
<trkpt lat="-38.9874430" lon="175.8185670">
<ele>378.896881</ele>
<time>2013-09-25T00:31:54.002Z</time>
</trkpt>
<trkpt lat="-38.9873470" lon="175.8185920">
<ele>379.384552</ele>
<time>2013-09-25T00:32:01.000Z</time>
</trkpt>
<trkpt lat="-38.9872790" lon="175.8186110">
<ele>378.896881</ele>
<time>2013-09-25T00:32:14.997Z</time>
</trkpt>
<trkpt lat="-38.9871830" lon="175.8186220">
<ele>379.384552</ele>
<time>2013-09-25T00:32:26.998Z</time>
</trkpt>
<trkpt lat="-38.9870850" lon="175.8186220">
<ele>379.384552</ele>
<time>2013-09-25T00:32:33.996Z</time>
</trkpt>
<trkpt lat="-38.9869890" lon="175.8186190">
<ele>378.896881</ele>
<time>2013-09-25T00:32:41.997Z</time>
</trkpt>
<trkpt lat="-38.9869090" lon="175.8186070">
<ele>378.896881</ele>
<time>2013-09-25T00:32:53.998Z</time>
</trkpt>
<trkpt lat="-38.9868160" lon="175.8185990">
<ele>378.409210</ele>
<time>2013-09-25T00:33:00.996Z</time>
</trkpt>
<trkpt lat="-38.9867190" lon="175.8185680">
<ele>378.896881</ele>
<time>2013-09-25T00:33:08.004Z</time>
</trkpt>
<trkpt lat="-38.9866880" lon="175.8184620">
<ele>378.896881</ele>
<time>2013-09-25T00:33:16.004Z</time>
</trkpt>
<trkpt lat="-38.9867740" lon="175.8183910">
<ele>378.896881</ele>
<time>2013-09-25T00:33:23.996Z</time>
</trkpt>
<trkpt lat="-38.9868480" lon="175.8183080">
<ele>378.896881</ele>
<time>2013-09-25T00:33:31.997Z</time>
</trkpt>
<trkpt lat="-38.9869010" lon="175.8182280">
<ele>378.896881</ele>
<time>2013-09-25T00:33:43.004Z</time>
</trkpt>
<trkpt lat="-38.9868520" lon="175.8181150">
<ele>378.409210</ele>
<time>2013-09-25T00:33:51.998Z</time>
</trkpt>
<trkpt lat="-38.9868000" lon="175.8180180">
<ele>377.464325</ele>
<time>2013-09-25T00:33:59.999Z</time>
</trkpt>
<trkpt lat="-38.9867780" lon="175.8179190">
<ele>376.976654</ele>
<time>2013-09-25T00:34:44.996Z</time>
</trkpt>
<trkpt lat="-38.9867820" lon="175.8177920">
<ele>376.976654</ele>
<time>2013-09-25T00:34:56.004Z</time>
</trkpt>
<trkpt lat="-38.9867970" lon="175.8176620">
<ele>377.464325</ele>
<time>2013-09-25T00:35:07.996Z</time>
</trkpt>
</trkseg>
</trk>
</gpx>
